<?xml version="1.0" encoding="UTF-8"?><gpx xmlns="http://www.topografix.com/GPX/1/1" version="1.1" creator="iOrient"><trk><name>Квест "Код города"</name><trkseg><trkpt lat="56.8353323" lon="53.1270573"><time>2024-11-03T13:29:17.280</time></trkpt><trkpt lat="56.8353488" lon="53.1270532"><time>2024-11-03T13:29:18.267</time></trkpt><trkpt lat="56.8354020" lon="53.1270823"><time>2024-11-03T13:29:22.263</time></trkpt><trkpt lat="56.8354288" lon="53.1271691"><time>2024-11-03T13:29:26.280</time></trkpt><trkpt lat="56.8354539" lon="53.1272620"><time>2024-11-03T13:29:30.270</time></trkpt><trkpt lat="56.8354694" lon="53.1273429"><time>2024-11-03T13:29:33.270</time></trkpt><trkpt lat="56.8354774" lon="53.1273699"><time>2024-11-03T13:29:34.270</time></trkpt><trkpt lat="56.8354921" lon="53.1274538"><time>2024-11-03T13:29:37.270</time></trkpt><trkpt lat="56.8354927" lon="53.1275405"><time>2024-11-03T13:29:40.280</time></trkpt><trkpt lat="56.8354849" lon="53.1276213"><time>2024-11-03T13:29:43.280</time></trkpt><trkpt lat="56.8354710" lon="53.1277180"><time>2024-11-03T13:29:47.283</time></trkpt><trkpt lat="56.8354767" lon="53.1278109"><time>2024-11-03T13:29:50.277</time></trkpt><trkpt lat="56.8354948" lon="53.1278981"><time>2024-11-03T13:29:53.280</time></trkpt><trkpt lat="56.8355046" lon="53.1279831"><time>2024-11-03T13:29:56.283</time></trkpt><trkpt lat="56.8355287" lon="53.1280574"><time>2024-11-03T13:29:59.287</time></trkpt><trkpt lat="56.8355372" lon="53.1281386"><time>2024-11-03T13:30:02.267</time></trkpt><trkpt lat="56.8355433" lon="53.1282198"><time>2024-11-03T13:30:05.277</time></trkpt><trkpt lat="56.8355187" lon="53.1282884"><time>2024-11-03T13:30:08.277</time></trkpt><trkpt lat="56.8354709" lon="53.1283273"><time>2024-11-03T13:30:11.277</time></trkpt><trkpt lat="56.8354247" lon="53.1283678"><time>2024-11-03T13:30:14.273</time></trkpt><trkpt lat="56.8353740" lon="53.1283745"><time>2024-11-03T13:30:17.277</time></trkpt><trkpt lat="56.8353215" lon="53.1283886"><time>2024-11-03T13:30:21.270</time></trkpt><trkpt lat="56.8352920" lon="53.1284601"><time>2024-11-03T13:30:25.273</time></trkpt><trkpt lat="56.8352755" lon="53.1285367"><time>2024-11-03T13:30:28.287</time></trkpt><trkpt lat="56.8352735" lon="53.1285525"><time>2024-11-03T13:30:29.277</time></trkpt><trkpt lat="56.8352898" lon="53.1286623"><time>2024-11-03T13:30:33.277</time></trkpt><trkpt lat="56.8352939" lon="53.1287517"><time>2024-11-03T13:30:37.287</time></trkpt><trkpt lat="56.8353171" lon="53.1288222"><time>2024-11-03T13:30:41.280</time></trkpt><trkpt lat="56.8353608" lon="53.1288871"><time>2024-11-03T13:30:44.280</time></trkpt><trkpt lat="56.8354172" lon="53.1289037"><time>2024-11-03T13:30:48.280</time></trkpt><trkpt lat="56.8354742" lon="53.1289260"><time>2024-11-03T13:30:52.283</time></trkpt><trkpt lat="56.8355243" lon="53.1289603"><time>2024-11-03T13:30:55.277</time></trkpt><trkpt lat="56.8355784" lon="53.1289996"><time>2024-11-03T13:30:59.297</time></trkpt><trkpt lat="56.8356273" lon="53.1290153"><time>2024-11-03T13:31:02.280</time></trkpt><trkpt lat="56.8356798" lon="53.1290138"><time>2024-11-03T13:31:06.280</time></trkpt><trkpt lat="56.8357291" lon="53.1290214"><time>2024-11-03T13:31:09.290</time></trkpt><trkpt lat="56.8357824" lon="53.1290226"><time>2024-11-03T13:31:12.280</time></trkpt><trkpt lat="56.8358337" lon="53.1290239"><time>2024-11-03T13:31:15.290</time></trkpt><trkpt lat="56.8358857" lon="53.1290248"><time>2024-11-03T13:31:18.280</time></trkpt><trkpt lat="56.8359366" lon="53.1290319"><time>2024-11-03T13:31:21.287</time></trkpt><trkpt lat="56.8359854" lon="53.1290135"><time>2024-11-03T13:31:24.287</time></trkpt><trkpt lat="56.8360416" lon="53.1289929"><time>2024-11-03T13:31:27.280</time></trkpt><trkpt lat="56.8361031" lon="53.1290278"><time>2024-11-03T13:31:30.283</time></trkpt><trkpt lat="56.8361451" lon="53.1290627"><time>2024-11-03T13:31:33.277</time></trkpt><trkpt lat="56.8361925" lon="53.1290975"><time>2024-11-03T13:31:36.277</time></trkpt><trkpt lat="56.8362433" lon="53.1291331"><time>2024-11-03T13:31:39.270</time></trkpt><trkpt lat="56.8362936" lon="53.1291521"><time>2024-11-03T13:31:42.280</time></trkpt><trkpt lat="56.8363478" lon="53.1291738"><time>2024-11-03T13:31:45.267</time></trkpt><trkpt lat="56.8363902" lon="53.1292059"><time>2024-11-03T13:31:47.307</time></trkpt><trkpt lat="56.8364083" lon="53.1292248"><time>2024-11-03T13:31:48.277</time></trkpt><trkpt lat="56.8364543" lon="53.1292715"><time>2024-11-03T13:31:51.280</time></trkpt><trkpt lat="56.8364992" lon="53.1293258"><time>2024-11-03T13:31:54.270</time></trkpt><trkpt lat="56.8365052" lon="53.1294265"><time>2024-11-03T13:31:57.277</time></trkpt><trkpt lat="56.8365050" lon="53.1295255"><time>2024-11-03T13:32:00.270</time></trkpt><trkpt lat="56.8365111" lon="53.1296157"><time>2024-11-03T13:32:03.277</time></trkpt><trkpt lat="56.8365003" lon="53.1297049"><time>2024-11-03T13:32:06.267</time></trkpt><trkpt lat="56.8365013" lon="53.1298056"><time>2024-11-03T13:32:09.277</time></trkpt><trkpt lat="56.8365092" lon="53.1299013"><time>2024-11-03T13:32:12.280</time></trkpt><trkpt lat="56.8365168" lon="53.1299940"><time>2024-11-03T13:32:15.277</time></trkpt><trkpt lat="56.8365156" lon="53.1301018"><time>2024-11-03T13:32:19.283</time></trkpt><trkpt lat="56.8365238" lon="53.1301964"><time>2024-11-03T13:32:22.280</time></trkpt><trkpt lat="56.8365429" lon="53.1302947"><time>2024-11-03T13:32:25.283</time></trkpt><trkpt lat="56.8365558" lon="53.1303892"><time>2024-11-03T13:32:28.283</time></trkpt><trkpt lat="56.8365782" lon="53.1304757"><time>2024-11-03T13:32:31.297</time></trkpt><trkpt lat="56.8365871" lon="53.1305018"><time>2024-11-03T13:32:32.287</time></trkpt><trkpt lat="56.8366075" lon="53.1305936"><time>2024-11-03T13:32:35.283</time></trkpt><trkpt lat="56.8366266" lon="53.1306879"><time>2024-11-03T13:32:38.277</time></trkpt><trkpt lat="56.8366619" lon="53.1307742"><time>2024-11-03T13:32:41.280</time></trkpt><trkpt lat="56.8367022" lon="53.1308166"><time>2024-11-03T13:32:43.280</time></trkpt><trkpt lat="56.8367430" lon="53.1308612"><time>2024-11-03T13:32:45.280</time></trkpt><trkpt lat="56.8367987" lon="53.1308936"><time>2024-11-03T13:32:48.283</time></trkpt><trkpt lat="56.8368550" lon="53.1309115"><time>2024-11-03T13:32:52.290</time></trkpt><trkpt lat="56.8369026" lon="53.1309201"><time>2024-11-03T13:32:55.283</time></trkpt><trkpt lat="56.8369516" lon="53.1309370"><time>2024-11-03T13:32:58.283</time></trkpt><trkpt lat="56.8369962" lon="53.1309797"><time>2024-11-03T13:33:01.287</time></trkpt><trkpt lat="56.8370292" lon="53.1310452"><time>2024-11-03T13:33:04.277</time></trkpt><trkpt lat="56.8370377" lon="53.1311532"><time>2024-11-03T13:33:07.273</time></trkpt><trkpt lat="56.8370417" lon="53.1312520"><time>2024-11-03T13:33:10.273</time></trkpt><trkpt lat="56.8370397" lon="53.1313431"><time>2024-11-03T13:33:13.273</time></trkpt><trkpt lat="56.8370512" lon="53.1314451"><time>2024-11-03T13:33:17.273</time></trkpt><trkpt lat="56.8370836" lon="53.1315109"><time>2024-11-03T13:33:20.273</time></trkpt><trkpt lat="56.8371107" lon="53.1315920"><time>2024-11-03T13:33:23.270</time></trkpt><trkpt lat="56.8370986" lon="53.1316890"><time>2024-11-03T13:33:27.277</time></trkpt><trkpt lat="56.8371118" lon="53.1317923"><time>2024-11-03T13:33:31.297</time></trkpt><trkpt lat="56.8371158" lon="53.1318207"><time>2024-11-03T13:33:32.280</time></trkpt><trkpt lat="56.8371374" lon="53.1318956"><time>2024-11-03T13:33:35.273</time></trkpt><trkpt lat="56.8371596" lon="53.1319893"><time>2024-11-03T13:33:39.287</time></trkpt><trkpt lat="56.8371717" lon="53.1320777"><time>2024-11-03T13:33:43.280</time></trkpt><trkpt lat="56.8371933" lon="53.1321517"><time>2024-11-03T13:33:46.277</time></trkpt><trkpt lat="56.8372042" lon="53.1322519"><time>2024-11-03T13:33:50.287</time></trkpt><trkpt lat="56.8372162" lon="53.1323448"><time>2024-11-03T13:33:54.287</time></trkpt><trkpt lat="56.8372300" lon="53.1324551"><time>2024-11-03T13:33:58.277</time></trkpt><trkpt lat="56.8372502" lon="53.1325386"><time>2024-11-03T13:34:01.277</time></trkpt><trkpt lat="56.8372859" lon="53.1326278"><time>2024-11-03T13:34:04.277</time></trkpt><trkpt lat="56.8373189" lon="53.1327011"><time>2024-11-03T13:34:07.277</time></trkpt><trkpt lat="56.8373572" lon="53.1327897"><time>2024-11-03T13:34:10.297</time></trkpt><trkpt lat="56.8373633" lon="53.1328187"><time>2024-11-03T13:34:11.280</time></trkpt><trkpt lat="56.8373804" lon="53.1328953"><time>2024-11-03T13:34:14.280</time></trkpt><trkpt lat="56.8374192" lon="53.1329544"><time>2024-11-03T13:34:17.280</time></trkpt><trkpt lat="56.8374611" lon="53.1329881"><time>2024-11-03T13:34:21.277</time></trkpt><trkpt lat="56.8374247" lon="53.1330060"><time>2024-11-03T13:34:31.073</time></trkpt><trkpt lat="56.8374363" lon="53.1330609"><time>2024-11-03T13:34:47.293</time></trkpt><trkpt lat="56.8374337" lon="53.1330743"><time>2024-11-03T13:34:48.303</time></trkpt><trkpt lat="56.8374072" lon="53.1331449"><time>2024-11-03T13:34:51.273</time></trkpt><trkpt lat="56.8373554" lon="53.1331797"><time>2024-11-03T13:34:55.283</time></trkpt><trkpt lat="56.8373146" lon="53.1332216"><time>2024-11-03T13:35:00.280</time></trkpt><trkpt lat="56.8372881" lon="53.1333021"><time>2024-11-03T13:35:04.283</time></trkpt><trkpt lat="56.8372567" lon="53.1333676"><time>2024-11-03T13:35:07.287</time></trkpt><trkpt lat="56.8372371" lon="53.1334641"><time>2024-11-03T13:35:11.273</time></trkpt><trkpt lat="56.8372398" lon="53.1335481"><time>2024-11-03T13:35:14.267</time></trkpt><trkpt lat="56.8372444" lon="53.1336462"><time>2024-11-03T13:35:17.277</time></trkpt><trkpt lat="56.8372443" lon="53.1337378"><time>2024-11-03T13:35:20.270</time></trkpt><trkpt lat="56.8372505" lon="53.1338304"><time>2024-11-03T13:35:23.273</time></trkpt><trkpt lat="56.8372655" lon="53.1339172"><time>2024-11-03T13:35:26.270</time></trkpt><trkpt lat="56.8372750" lon="53.1339998"><time>2024-11-03T13:35:29.267</time></trkpt><trkpt lat="56.8372764" lon="53.1340827"><time>2024-11-03T13:35:32.283</time></trkpt><trkpt lat="56.8372794" lon="53.1341755"><time>2024-11-03T13:35:35.277</time></trkpt><trkpt lat="56.8372856" lon="53.1342713"><time>2024-11-03T13:35:38.277</time></trkpt><trkpt lat="56.8372763" lon="53.1343611"><time>2024-11-03T13:35:41.270</time></trkpt><trkpt lat="56.8372664" lon="53.1344649"><time>2024-11-03T13:35:45.270</time></trkpt><trkpt lat="56.8372339" lon="53.1345480"><time>2024-11-03T13:35:49.273</time></trkpt><trkpt lat="56.8371847" lon="53.1346031"><time>2024-11-03T13:35:53.277</time></trkpt><trkpt lat="56.8371400" lon="53.1346185"><time>2024-11-03T13:35:56.273</time></trkpt><trkpt lat="56.8370796" lon="53.1346275"><time>2024-11-03T13:36:00.273</time></trkpt><trkpt lat="56.8370217" lon="53.1346351"><time>2024-11-03T13:36:04.277</time></trkpt><trkpt lat="56.8369763" lon="53.1346006"><time>2024-11-03T13:36:07.277</time></trkpt><trkpt lat="56.8369249" lon="53.1346233"><time>2024-11-03T13:36:10.277</time></trkpt><trkpt lat="56.8368993" lon="53.1347106"><time>2024-11-03T13:36:13.277</time></trkpt><trkpt lat="56.8368805" lon="53.1347899"><time>2024-11-03T13:36:16.277</time></trkpt><trkpt lat="56.8368548" lon="53.1348641"><time>2024-11-03T13:36:19.270</time></trkpt><trkpt lat="56.8368464" lon="53.1349514"><time>2024-11-03T13:36:22.277</time></trkpt><trkpt lat="56.8368412" lon="53.1350640"><time>2024-11-03T13:36:25.280</time></trkpt><trkpt lat="56.8368131" lon="53.1351653"><time>2024-11-03T13:36:28.287</time></trkpt><trkpt lat="56.8367784" lon="53.1352306"><time>2024-11-03T13:36:31.293</time></trkpt><trkpt lat="56.8367625" lon="53.1352425"><time>2024-11-03T13:36:32.283</time></trkpt><trkpt lat="56.8367141" lon="53.1352475"><time>2024-11-03T13:36:35.283</time></trkpt><trkpt lat="56.8366679" lon="53.1352439"><time>2024-11-03T13:36:38.290</time></trkpt><trkpt lat="56.8366200" lon="53.1352432"><time>2024-11-03T13:36:41.280</time></trkpt><trkpt lat="56.8365706" lon="53.1352543"><time>2024-11-03T13:36:44.287</time></trkpt><trkpt lat="56.8365205" lon="53.1352777"><time>2024-11-03T13:36:47.283</time></trkpt><trkpt lat="56.8364691" lon="53.1352921"><time>2024-11-03T13:36:50.287</time></trkpt><trkpt lat="56.8364192" lon="53.1353158"><time>2024-11-03T13:36:53.290</time></trkpt><trkpt lat="56.8363629" lon="53.1353451"><time>2024-11-03T13:36:56.283</time></trkpt><trkpt lat="56.8363119" lon="53.1353776"><time>2024-11-03T13:36:59.290</time></trkpt><trkpt lat="56.8362994" lon="53.1354793"><time>2024-11-03T13:37:02.283</time></trkpt><trkpt lat="56.8363045" lon="53.1355821"><time>2024-11-03T13:37:05.287</time></trkpt><trkpt lat="56.8363022" lon="53.1356759"><time>2024-11-03T13:37:08.283</time></trkpt><trkpt lat="56.8363009" lon="53.1357724"><time>2024-11-03T13:37:11.283</time></trkpt><trkpt lat="56.8363211" lon="53.1358637"><time>2024-11-03T13:37:14.283</time></trkpt><trkpt lat="56.8363548" lon="53.1359421"><time>2024-11-03T13:37:17.273</time></trkpt><trkpt lat="56.8363997" lon="53.1359863"><time>2024-11-03T13:37:20.280</time></trkpt><trkpt lat="56.8364505" lon="53.1360185"><time>2024-11-03T13:37:23.290</time></trkpt><trkpt lat="56.8365013" lon="53.1360449"><time>2024-11-03T13:37:26.287</time></trkpt><trkpt lat="56.8365487" lon="53.1360741"><time>2024-11-03T13:37:29.290</time></trkpt><trkpt lat="56.8365627" lon="53.1361589"><time>2024-11-03T13:37:32.283</time></trkpt><trkpt lat="56.8365736" lon="53.1362458"><time>2024-11-03T13:37:35.287</time></trkpt><trkpt lat="56.8365749" lon="53.1363359"><time>2024-11-03T13:37:38.287</time></trkpt><trkpt lat="56.8365833" lon="53.1364320"><time>2024-11-03T13:37:41.283</time></trkpt><trkpt lat="56.8365886" lon="53.1365235"><time>2024-11-03T13:37:44.283</time></trkpt><trkpt lat="56.8365934" lon="53.1366214"><time>2024-11-03T13:37:47.277</time></trkpt><trkpt lat="56.8365901" lon="53.1367154"><time>2024-11-03T13:37:50.283</time></trkpt><trkpt lat="56.8365562" lon="53.1367849"><time>2024-11-03T13:37:53.287</time></trkpt><trkpt lat="56.8365315" lon="53.1368567"><time>2024-11-03T13:37:56.283</time></trkpt><trkpt lat="56.8365151" lon="53.1369440"><time>2024-11-03T13:37:59.280</time></trkpt><trkpt lat="56.8364860" lon="53.1370074"><time>2024-11-03T13:38:02.290</time></trkpt><trkpt lat="56.8364506" lon="53.1370991"><time>2024-11-03T13:38:05.277</time></trkpt><trkpt lat="56.8364186" lon="53.1371805"><time>2024-11-03T13:38:08.297</time></trkpt><trkpt lat="56.8364004" lon="53.1371838"><time>2024-11-03T13:38:09.283</time></trkpt><trkpt lat="56.8363517" lon="53.1371865"><time>2024-11-03T13:38:12.290</time></trkpt><trkpt lat="56.8363015" lon="53.1372154"><time>2024-11-03T13:38:16.277</time></trkpt><trkpt lat="56.8362534" lon="53.1372353"><time>2024-11-03T13:38:19.277</time></trkpt><trkpt lat="56.8361945" lon="53.1372749"><time>2024-11-03T13:38:22.273</time></trkpt><trkpt lat="56.8361358" lon="53.1372779"><time>2024-11-03T13:38:25.277</time></trkpt><trkpt lat="56.8360797" lon="53.1372922"><time>2024-11-03T13:38:29.280</time></trkpt><trkpt lat="56.8360332" lon="53.1373070"><time>2024-11-03T13:38:33.290</time></trkpt><trkpt lat="56.8359879" lon="53.1372932"><time>2024-11-03T13:38:37.287</time></trkpt><trkpt lat="56.8359272" lon="53.1372951"><time>2024-11-03T13:38:42.297</time></trkpt><trkpt lat="56.8359117" lon="53.1372998"><time>2024-11-03T13:38:43.287</time></trkpt><trkpt lat="56.8358591" lon="53.1372948"><time>2024-11-03T13:38:46.283</time></trkpt><trkpt lat="56.8358051" lon="53.1372878"><time>2024-11-03T13:38:49.283</time></trkpt><trkpt lat="56.8357575" lon="53.1372799"><time>2024-11-03T13:38:52.283</time></trkpt><trkpt lat="56.8357097" lon="53.1372770"><time>2024-11-03T13:38:55.283</time></trkpt><trkpt lat="56.8356476" lon="53.1372689"><time>2024-11-03T13:38:58.287</time></trkpt><trkpt lat="56.8356027" lon="53.1372648"><time>2024-11-03T13:39:01.283</time></trkpt><trkpt lat="56.8355743" lon="53.1373288"><time>2024-11-03T13:39:05.287</time></trkpt><trkpt lat="56.8355758" lon="53.1374186"><time>2024-11-03T13:39:08.290</time></trkpt><trkpt lat="56.8355781" lon="53.1375272"><time>2024-11-03T13:39:12.290</time></trkpt><trkpt lat="56.8355788" lon="53.1375613"><time>2024-11-03T13:39:21.393</time></trkpt><trkpt lat="56.8355845" lon="53.1376313"><time>2024-11-03T13:39:40.300</time></trkpt><trkpt lat="56.8355882" lon="53.1376578"><time>2024-11-03T13:39:41.273</time></trkpt><trkpt lat="56.8356056" lon="53.1377423"><time>2024-11-03T13:39:45.283</time></trkpt><trkpt lat="56.8356572" lon="53.1377872"><time>2024-11-03T13:39:49.287</time></trkpt><trkpt lat="56.8357014" lon="53.1378353"><time>2024-11-03T13:39:53.280</time></trkpt><trkpt lat="56.8357380" lon="53.1379151"><time>2024-11-03T13:39:57.293</time></trkpt><trkpt lat="56.8357690" lon="53.1379826"><time>2024-11-03T13:40:00.280</time></trkpt><trkpt lat="56.8358132" lon="53.1380368"><time>2024-11-03T13:40:03.290</time></trkpt><trkpt lat="56.8358447" lon="53.1381072"><time>2024-11-03T13:40:06.283</time></trkpt><trkpt lat="56.8358662" lon="53.1381875"><time>2024-11-03T13:40:09.287</time></trkpt><trkpt lat="56.8358821" lon="53.1382772"><time>2024-11-03T13:40:12.287</time></trkpt><trkpt lat="56.8359031" lon="53.1383608"><time>2024-11-03T13:40:16.287</time></trkpt><trkpt lat="56.8359470" lon="53.1383943"><time>2024-11-03T13:40:20.283</time></trkpt><trkpt lat="56.8359966" lon="53.1384271"><time>2024-11-03T13:40:24.283</time></trkpt><trkpt lat="56.8360514" lon="53.1384398"><time>2024-11-03T13:40:28.287</time></trkpt><trkpt lat="56.8360985" lon="53.1384411"><time>2024-11-03T13:40:31.280</time></trkpt><trkpt lat="56.8361572" lon="53.1384454"><time>2024-11-03T13:40:35.287</time></trkpt><trkpt lat="56.8362190" lon="53.1384285"><time>2024-11-03T13:40:38.277</time></trkpt><trkpt lat="56.8362794" lon="53.1384164"><time>2024-11-03T13:40:41.267</time></trkpt><trkpt lat="56.8363320" lon="53.1384019"><time>2024-11-03T13:40:44.267</time></trkpt><trkpt lat="56.8363817" lon="53.1383808"><time>2024-11-03T13:40:47.270</time></trkpt><trkpt lat="56.8364235" lon="53.1383500"><time>2024-11-03T13:40:50.270</time></trkpt><trkpt lat="56.8364744" lon="53.1383481"><time>2024-11-03T13:40:53.277</time></trkpt><trkpt lat="56.8365277" lon="53.1383690"><time>2024-11-03T13:40:56.280</time></trkpt><trkpt lat="56.8365666" lon="53.1384252"><time>2024-11-03T13:40:59.273</time></trkpt><trkpt lat="56.8366057" lon="53.1384719"><time>2024-11-03T13:41:02.277</time></trkpt><trkpt lat="56.8366501" lon="53.1385118"><time>2024-11-03T13:41:05.307</time></trkpt><trkpt lat="56.8366951" lon="53.1385724"><time>2024-11-03T13:41:09.283</time></trkpt><trkpt lat="56.8367396" lon="53.1385968"><time>2024-11-03T13:41:12.277</time></trkpt><trkpt lat="56.8367881" lon="53.1386009"><time>2024-11-03T13:41:15.283</time></trkpt><trkpt lat="56.8368504" lon="53.1386150"><time>2024-11-03T13:41:18.270</time></trkpt><trkpt lat="56.8368897" lon="53.1386609"><time>2024-11-03T13:41:21.283</time></trkpt><trkpt lat="56.8369281" lon="53.1387120"><time>2024-11-03T13:41:25.287</time></trkpt><trkpt lat="56.8369586" lon="53.1387776"><time>2024-11-03T13:41:29.270</time></trkpt><trkpt lat="56.8369854" lon="53.1388478"><time>2024-11-03T13:41:32.277</time></trkpt><trkpt lat="56.8370404" lon="53.1389124"><time>2024-11-03T13:41:35.277</time></trkpt><trkpt lat="56.8370807" lon="53.1389542"><time>2024-11-03T13:41:37.277</time></trkpt><trkpt lat="56.8371415" lon="53.1389949"><time>2024-11-03T13:41:40.280</time></trkpt><trkpt lat="56.8371921" lon="53.1390112"><time>2024-11-03T13:41:43.290</time></trkpt><trkpt lat="56.8372401" lon="53.1390782"><time>2024-11-03T13:41:46.277</time></trkpt><trkpt lat="56.8372717" lon="53.1391749"><time>2024-11-03T13:41:49.290</time></trkpt><trkpt lat="56.8373007" lon="53.1392685"><time>2024-11-03T13:41:52.287</time></trkpt><trkpt lat="56.8373167" lon="53.1393521"><time>2024-11-03T13:41:54.283</time></trkpt><trkpt lat="56.8373341" lon="53.1394533"><time>2024-11-03T13:41:57.287</time></trkpt><trkpt lat="56.8373550" lon="53.1395465"><time>2024-11-03T13:42:01.287</time></trkpt><trkpt lat="56.8373931" lon="53.1396145"><time>2024-11-03T13:42:06.290</time></trkpt><trkpt lat="56.8374506" lon="53.1396213"><time>2024-11-03T13:42:10.290</time></trkpt><trkpt lat="56.8374962" lon="53.1396511"><time>2024-11-03T13:42:13.287</time></trkpt><trkpt lat="56.8375429" lon="53.1396643"><time>2024-11-03T13:42:16.290</time></trkpt><trkpt lat="56.8375948" lon="53.1396361"><time>2024-11-03T13:42:19.287</time></trkpt><trkpt lat="56.8376417" lon="53.1396469"><time>2024-11-03T13:42:22.287</time></trkpt><trkpt lat="56.8376928" lon="53.1396284"><time>2024-11-03T13:42:25.280</time></trkpt><trkpt lat="56.8377400" lon="53.1396078"><time>2024-11-03T13:42:28.287</time></trkpt><trkpt lat="56.8377878" lon="53.1395899"><time>2024-11-03T13:42:31.287</time></trkpt><trkpt lat="56.8378329" lon="53.1395854"><time>2024-11-03T13:42:34.290</time></trkpt><trkpt lat="56.8378854" lon="53.1396005"><time>2024-11-03T13:42:37.287</time></trkpt><trkpt lat="56.8379195" lon="53.1396601"><time>2024-11-03T13:42:39.290</time></trkpt><trkpt lat="56.8379734" lon="53.1397082"><time>2024-11-03T13:42:42.287</time></trkpt><trkpt lat="56.8380313" lon="53.1397135"><time>2024-11-03T13:42:45.290</time></trkpt><trkpt lat="56.8380737" lon="53.1397815"><time>2024-11-03T13:42:48.307</time></trkpt><trkpt lat="56.8380743" lon="53.1398186"><time>2024-11-03T13:42:49.287</time></trkpt><trkpt lat="56.8380770" lon="53.1399249"><time>2024-11-03T13:42:53.290</time></trkpt><trkpt lat="56.8380689" lon="53.1400276"><time>2024-11-03T13:42:57.283</time></trkpt><trkpt lat="56.8380630" lon="53.1401098"><time>2024-11-03T13:43:00.287</time></trkpt><trkpt lat="56.8380647" lon="53.1402037"><time>2024-11-03T13:43:03.283</time></trkpt><trkpt lat="56.8380558" lon="53.1402996"><time>2024-11-03T13:43:06.283</time></trkpt><trkpt lat="56.8380606" lon="53.1403935"><time>2024-11-03T13:43:09.290</time></trkpt><trkpt lat="56.8380692" lon="53.1404803"><time>2024-11-03T13:43:12.290</time></trkpt><trkpt lat="56.8380804" lon="53.1405728"><time>2024-11-03T13:43:15.293</time></trkpt><trkpt lat="56.8380771" lon="53.1406670"><time>2024-11-03T13:43:18.290</time></trkpt><trkpt lat="56.8380770" lon="53.1407539"><time>2024-11-03T13:43:21.283</time></trkpt><trkpt lat="56.8380723" lon="53.1408404"><time>2024-11-03T13:43:24.290</time></trkpt><trkpt lat="56.8380747" lon="53.1409386"><time>2024-11-03T13:43:27.287</time></trkpt><trkpt lat="56.8380735" lon="53.1410239"><time>2024-11-03T13:43:30.290</time></trkpt><trkpt lat="56.8380881" lon="53.1411209"><time>2024-11-03T13:43:33.283</time></trkpt><trkpt lat="56.8381066" lon="53.1412150"><time>2024-11-03T13:43:36.290</time></trkpt><trkpt lat="56.8381142" lon="53.1412989"><time>2024-11-03T13:43:39.287</time></trkpt><trkpt lat="56.8381284" lon="53.1413807"><time>2024-11-03T13:43:42.280</time></trkpt><trkpt lat="56.8381344" lon="53.1414803"><time>2024-11-03T13:43:45.283</time></trkpt><trkpt lat="56.8381420" lon="53.1415833"><time>2024-11-03T13:43:48.283</time></trkpt><trkpt lat="56.8381449" lon="53.1416255"><time>2024-11-03T13:43:49.273</time></trkpt><trkpt lat="56.8381431" lon="53.1417195"><time>2024-11-03T13:43:52.277</time></trkpt><trkpt lat="56.8381421" lon="53.1418136"><time>2024-11-03T13:43:55.273</time></trkpt><trkpt lat="56.8381475" lon="53.1419058"><time>2024-11-03T13:43:58.277</time></trkpt><trkpt lat="56.8381721" lon="53.1419831"><time>2024-11-03T13:44:01.283</time></trkpt><trkpt lat="56.8381920" lon="53.1420832"><time>2024-11-03T13:44:05.277</time></trkpt><trkpt lat="56.8382002" lon="53.1421819"><time>2024-11-03T13:44:09.280</time></trkpt><trkpt lat="56.8381885" lon="53.1422843"><time>2024-11-03T13:44:13.280</time></trkpt><trkpt lat="56.8381844" lon="53.1423884"><time>2024-11-03T13:44:16.280</time></trkpt><trkpt lat="56.8381960" lon="53.1424733"><time>2024-11-03T13:44:19.287</time></trkpt><trkpt lat="56.8381848" lon="53.1425820"><time>2024-11-03T13:44:22.283</time></trkpt><trkpt lat="56.8381570" lon="53.1426615"><time>2024-11-03T13:44:25.293</time></trkpt><trkpt lat="56.8381485" lon="53.1426913"><time>2024-11-03T13:44:26.280</time></trkpt><trkpt lat="56.8381209" lon="53.1427811"><time>2024-11-03T13:44:29.287</time></trkpt><trkpt lat="56.8381192" lon="53.1428645"><time>2024-11-03T13:44:32.277</time></trkpt><trkpt lat="56.8380948" lon="53.1429436"><time>2024-11-03T13:44:36.277</time></trkpt><trkpt lat="56.8380445" lon="53.1429695"><time>2024-11-03T13:44:40.263</time></trkpt><trkpt lat="56.8380182" lon="53.1429818"><time>2024-11-03T13:44:43.690</time></trkpt><trkpt lat="56.8380783" lon="53.1429126"><time>2024-11-03T13:44:57.280</time></trkpt><trkpt lat="56.8380853" lon="53.1429331"><time>2024-11-03T13:44:58.273</time></trkpt><trkpt lat="56.8381140" lon="53.1430050"><time>2024-11-03T13:45:02.267</time></trkpt><trkpt lat="56.8380698" lon="53.1430408"><time>2024-11-03T13:45:06.273</time></trkpt><trkpt lat="56.8380174" lon="53.1430522"><time>2024-11-03T13:45:09.277</time></trkpt><trkpt lat="56.8379613" lon="53.1430669"><time>2024-11-03T13:45:13.277</time></trkpt><trkpt lat="56.8379365" lon="53.1431495"><time>2024-11-03T13:45:17.277</time></trkpt><trkpt lat="56.8378978" lon="53.1432261"><time>2024-11-03T13:45:21.277</time></trkpt><trkpt lat="56.8378692" lon="53.1432916"><time>2024-11-03T13:45:24.270</time></trkpt><trkpt lat="56.8378226" lon="53.1433466"><time>2024-11-03T13:45:28.273</time></trkpt><trkpt lat="56.8377751" lon="53.1433675"><time>2024-11-03T13:45:31.280</time></trkpt><trkpt lat="56.8377261" lon="53.1433739"><time>2024-11-03T13:45:34.280</time></trkpt><trkpt lat="56.8376784" lon="53.1434088"><time>2024-11-03T13:45:37.287</time></trkpt><trkpt lat="56.8376494" lon="53.1434911"><time>2024-11-03T13:45:40.290</time></trkpt><trkpt lat="56.8376324" lon="53.1435749"><time>2024-11-03T13:45:43.287</time></trkpt><trkpt lat="56.8376071" lon="53.1436523"><time>2024-11-03T13:45:46.290</time></trkpt><trkpt lat="56.8375582" lon="53.1436894"><time>2024-11-03T13:45:49.290</time></trkpt><trkpt lat="56.8375153" lon="53.1437279"><time>2024-11-03T13:45:52.277</time></trkpt><trkpt lat="56.8374621" lon="53.1437150"><time>2024-11-03T13:45:55.273</time></trkpt><trkpt lat="56.8374088" lon="53.1436819"><time>2024-11-03T13:45:58.280</time></trkpt><trkpt lat="56.8373644" lon="53.1436366"><time>2024-11-03T13:46:01.277</time></trkpt><trkpt lat="56.8373037" lon="53.1436159"><time>2024-11-03T13:46:05.277</time></trkpt><trkpt lat="56.8372588" lon="53.1435675"><time>2024-11-03T13:46:08.287</time></trkpt><trkpt lat="56.8372125" lon="53.1435307"><time>2024-11-03T13:46:11.293</time></trkpt><trkpt lat="56.8371624" lon="53.1434920"><time>2024-11-03T13:46:14.287</time></trkpt><trkpt lat="56.8371174" lon="53.1434429"><time>2024-11-03T13:46:17.290</time></trkpt><trkpt lat="56.8370741" lon="53.1434042"><time>2024-11-03T13:46:20.290</time></trkpt><trkpt lat="56.8370288" lon="53.1433583"><time>2024-11-03T13:46:23.287</time></trkpt><trkpt lat="56.8369856" lon="53.1433105"><time>2024-11-03T13:46:26.290</time></trkpt><trkpt lat="56.8369401" lon="53.1432639"><time>2024-11-03T13:46:29.293</time></trkpt><trkpt lat="56.8369027" lon="53.1431973"><time>2024-11-03T13:46:32.287</time></trkpt><trkpt lat="56.8368658" lon="53.1431260"><time>2024-11-03T13:46:35.290</time></trkpt><trkpt lat="56.8368334" lon="53.1430464"><time>2024-11-03T13:46:38.293</time></trkpt><trkpt lat="56.8368008" lon="53.1429628"><time>2024-11-03T13:46:41.287</time></trkpt><trkpt lat="56.8367630" lon="53.1428880"><time>2024-11-03T13:46:44.283</time></trkpt><trkpt lat="56.8367201" lon="53.1428157"><time>2024-11-03T13:46:47.290</time></trkpt><trkpt lat="56.8366678" lon="53.1427674"><time>2024-11-03T13:46:50.290</time></trkpt><trkpt lat="56.8366181" lon="53.1427370"><time>2024-11-03T13:46:53.283</time></trkpt><trkpt lat="56.8365608" lon="53.1427301"><time>2024-11-03T13:46:57.273</time></trkpt><trkpt lat="56.8365157" lon="53.1427160"><time>2024-11-03T13:47:00.280</time></trkpt><trkpt lat="56.8364688" lon="53.1427271"><time>2024-11-03T13:47:04.280</time></trkpt><trkpt lat="56.8364090" lon="53.1426966"><time>2024-11-03T13:47:08.273</time></trkpt><trkpt lat="56.8363566" lon="53.1426410"><time>2024-11-03T13:47:12.273</time></trkpt><trkpt lat="56.8363061" lon="53.1426212"><time>2024-11-03T13:47:15.277</time></trkpt><trkpt lat="56.8362534" lon="53.1426142"><time>2024-11-03T13:47:19.277</time></trkpt><trkpt lat="56.8362081" lon="53.1425968"><time>2024-11-03T13:47:22.280</time></trkpt><trkpt lat="56.8361529" lon="53.1425793"><time>2024-11-03T13:47:26.287</time></trkpt><trkpt lat="56.8361065" lon="53.1425651"><time>2024-11-03T13:47:29.290</time></trkpt><trkpt lat="56.8360607" lon="53.1425539"><time>2024-11-03T13:47:32.287</time></trkpt><trkpt lat="56.8360097" lon="53.1425356"><time>2024-11-03T13:47:36.287</time></trkpt><trkpt lat="56.8359647" lon="53.1425372"><time>2024-11-03T13:47:39.277</time></trkpt><trkpt lat="56.8359095" lon="53.1425539"><time>2024-11-03T13:47:42.290</time></trkpt><trkpt lat="56.8358616" lon="53.1425856"><time>2024-11-03T13:47:45.287</time></trkpt><trkpt lat="56.8358073" lon="53.1425863"><time>2024-11-03T13:47:49.287</time></trkpt><trkpt lat="56.8357483" lon="53.1425940"><time>2024-11-03T13:47:53.290</time></trkpt><trkpt lat="56.8357006" lon="53.1425878"><time>2024-11-03T13:47:57.293</time></trkpt><trkpt lat="56.8356518" lon="53.1425991"><time>2024-11-03T13:48:01.293</time></trkpt><trkpt lat="56.8356018" lon="53.1425974"><time>2024-11-03T13:48:05.287</time></trkpt><trkpt lat="56.8355520" lon="53.1425689"><time>2024-11-03T13:48:09.290</time></trkpt><trkpt lat="56.8355022" lon="53.1425349"><time>2024-11-03T13:48:13.293</time></trkpt><trkpt lat="56.8354485" lon="53.1425351"><time>2024-11-03T13:48:16.287</time></trkpt><trkpt lat="56.8354011" lon="53.1425549"><time>2024-11-03T13:48:19.293</time></trkpt><trkpt lat="56.8353518" lon="53.1425672"><time>2024-11-03T13:48:22.287</time></trkpt><trkpt lat="56.8352934" lon="53.1425970"><time>2024-11-03T13:48:26.287</time></trkpt><trkpt lat="56.8352464" lon="53.1426168"><time>2024-11-03T13:48:29.293</time></trkpt><trkpt lat="56.8351918" lon="53.1426384"><time>2024-11-03T13:48:32.287</time></trkpt><trkpt lat="56.8351483" lon="53.1426643"><time>2024-11-03T13:48:34.277</time></trkpt><trkpt lat="56.8350844" lon="53.1426832"><time>2024-11-03T13:48:37.293</time></trkpt><trkpt lat="56.8350236" lon="53.1426700"><time>2024-11-03T13:48:40.283</time></trkpt><trkpt lat="56.8349713" lon="53.1427131"><time>2024-11-03T13:48:43.280</time></trkpt><trkpt lat="56.8349396" lon="53.1427784"><time>2024-11-03T13:48:46.277</time></trkpt><trkpt lat="56.8348985" lon="53.1428251"><time>2024-11-03T13:48:49.277</time></trkpt><trkpt lat="56.8348539" lon="53.1428509"><time>2024-11-03T13:48:52.297</time></trkpt><trkpt lat="56.8348373" lon="53.1428586"><time>2024-11-03T13:48:53.280</time></trkpt><trkpt lat="56.8347935" lon="53.1428904"><time>2024-11-03T13:48:56.277</time></trkpt><trkpt lat="56.8347513" lon="53.1429347"><time>2024-11-03T13:48:59.280</time></trkpt><trkpt lat="56.8346978" lon="53.1429875"><time>2024-11-03T13:49:03.277</time></trkpt><trkpt lat="56.8346621" lon="53.1430394"><time>2024-11-03T13:49:06.283</time></trkpt><trkpt lat="56.8346205" lon="53.1430901"><time>2024-11-03T13:49:09.283</time></trkpt><trkpt lat="56.8345665" lon="53.1431313"><time>2024-11-03T13:49:13.290</time></trkpt><trkpt lat="56.8345108" lon="53.1431486"><time>2024-11-03T13:49:18.277</time></trkpt><trkpt lat="56.8344662" lon="53.1432079"><time>2024-11-03T13:49:21.277</time></trkpt><trkpt lat="56.8344175" lon="53.1432164"><time>2024-11-03T13:49:24.283</time></trkpt><trkpt lat="56.8343698" lon="53.1432041"><time>2024-11-03T13:49:27.280</time></trkpt><trkpt lat="56.8343242" lon="53.1432028"><time>2024-11-03T13:49:30.283</time></trkpt><trkpt lat="56.8342674" lon="53.1431922"><time>2024-11-03T13:49:34.293</time></trkpt><trkpt lat="56.8342152" lon="53.1432007"><time>2024-11-03T13:49:38.290</time></trkpt><trkpt lat="56.8341681" lon="53.1432064"><time>2024-11-03T13:49:41.293</time></trkpt><trkpt lat="56.8341129" lon="53.1432194"><time>2024-11-03T13:49:44.287</time></trkpt><trkpt lat="56.8340642" lon="53.1432286"><time>2024-11-03T13:49:47.287</time></trkpt><trkpt lat="56.8340140" lon="53.1432403"><time>2024-11-03T13:49:50.283</time></trkpt><trkpt lat="56.8339608" lon="53.1432707"><time>2024-11-03T13:49:53.317</time></trkpt><trkpt lat="56.8339430" lon="53.1432793"><time>2024-11-03T13:49:54.293</time></trkpt><trkpt lat="56.8338880" lon="53.1433136"><time>2024-11-03T13:49:57.290</time></trkpt><trkpt lat="56.8338372" lon="53.1432991"><time>2024-11-03T13:50:00.290</time></trkpt><trkpt lat="56.8337854" lon="53.1432816"><time>2024-11-03T13:50:03.293</time></trkpt><trkpt lat="56.8337281" lon="53.1432731"><time>2024-11-03T13:50:06.290</time></trkpt><trkpt lat="56.8336793" lon="53.1432495"><time>2024-11-03T13:50:09.290</time></trkpt><trkpt lat="56.8336236" lon="53.1432719"><time>2024-11-03T13:50:12.287</time></trkpt><trkpt lat="56.8335815" lon="53.1433306"><time>2024-11-03T13:50:15.270</time></trkpt><trkpt lat="56.8335498" lon="53.1433919"><time>2024-11-03T13:50:17.293</time></trkpt><trkpt lat="56.8335301" lon="53.1433978"><time>2024-11-03T13:50:18.280</time></trkpt><trkpt lat="56.8334773" lon="53.1434252"><time>2024-11-03T13:50:21.283</time></trkpt><trkpt lat="56.8334303" lon="53.1434299"><time>2024-11-03T13:50:24.283</time></trkpt><trkpt lat="56.8333742" lon="53.1434583"><time>2024-11-03T13:50:28.277</time></trkpt><trkpt lat="56.8333230" lon="53.1434917"><time>2024-11-03T13:50:31.283</time></trkpt><trkpt lat="56.8332678" lon="53.1435242"><time>2024-11-03T13:50:35.293</time></trkpt><trkpt lat="56.8332134" lon="53.1435350"><time>2024-11-03T13:50:39.267</time></trkpt><trkpt lat="56.8331689" lon="53.1435544"><time>2024-11-03T13:50:44.277</time></trkpt><trkpt lat="56.8331690" lon="53.1435119"><time>2024-11-03T13:51:00.173</time></trkpt><trkpt lat="56.8331238" lon="53.1435616"><time>2024-11-03T13:51:08.283</time></trkpt><trkpt lat="56.8331126" lon="53.1435805"><time>2024-11-03T13:51:09.277</time></trkpt><trkpt lat="56.8330579" lon="53.1436081"><time>2024-11-03T13:51:13.270</time></trkpt><trkpt lat="56.8330142" lon="53.1436469"><time>2024-11-03T13:51:17.270</time></trkpt><trkpt lat="56.8330049" lon="53.1437521"><time>2024-11-03T13:51:21.277</time></trkpt><trkpt lat="56.8329760" lon="53.1438360"><time>2024-11-03T13:51:26.287</time></trkpt><trkpt lat="56.8329499" lon="53.1439214"><time>2024-11-03T13:51:30.290</time></trkpt><trkpt lat="56.8329365" lon="53.1440041"><time>2024-11-03T13:51:33.277</time></trkpt><trkpt lat="56.8329148" lon="53.1440812"><time>2024-11-03T13:51:36.270</time></trkpt><trkpt lat="56.8329012" lon="53.1441656"><time>2024-11-03T13:51:39.277</time></trkpt><trkpt lat="56.8328822" lon="53.1442438"><time>2024-11-03T13:51:42.283</time></trkpt><trkpt lat="56.8328589" lon="53.1443362"><time>2024-11-03T13:51:46.280</time></trkpt><trkpt lat="56.8328482" lon="53.1444393"><time>2024-11-03T13:51:50.287</time></trkpt><trkpt lat="56.8328359" lon="53.1445437"><time>2024-11-03T13:51:54.280</time></trkpt><trkpt lat="56.8328011" lon="53.1445963"><time>2024-11-03T13:51:57.290</time></trkpt><trkpt lat="56.8327429" lon="53.1446327"><time>2024-11-03T13:52:01.273</time></trkpt><trkpt lat="56.8327004" lon="53.1446848"><time>2024-11-03T13:52:04.287</time></trkpt><trkpt lat="56.8326492" lon="53.1447363"><time>2024-11-03T13:52:08.277</time></trkpt><trkpt lat="56.8326057" lon="53.1447694"><time>2024-11-03T13:52:11.287</time></trkpt><trkpt lat="56.8325622" lon="53.1448180"><time>2024-11-03T13:52:14.290</time></trkpt><trkpt lat="56.8325161" lon="53.1448696"><time>2024-11-03T13:52:17.290</time></trkpt><trkpt lat="56.8324617" lon="53.1449322"><time>2024-11-03T13:52:20.287</time></trkpt><trkpt lat="56.8324101" lon="53.1449999"><time>2024-11-03T13:52:23.290</time></trkpt><trkpt lat="56.8323511" lon="53.1450382"><time>2024-11-03T13:52:26.293</time></trkpt><trkpt lat="56.8322949" lon="53.1450697"><time>2024-11-03T13:52:29.290</time></trkpt><trkpt lat="56.8322433" lon="53.1450896"><time>2024-11-03T13:52:32.280</time></trkpt><trkpt lat="56.8321977" lon="53.1450934"><time>2024-11-03T13:52:35.293</time></trkpt><trkpt lat="56.8321476" lon="53.1451024"><time>2024-11-03T13:52:38.293</time></trkpt><trkpt lat="56.8320938" lon="53.1451245"><time>2024-11-03T13:52:41.283</time></trkpt><trkpt lat="56.8320386" lon="53.1451618"><time>2024-11-03T13:52:44.290</time></trkpt><trkpt lat="56.8319831" lon="53.1451965"><time>2024-11-03T13:52:47.293</time></trkpt><trkpt lat="56.8319385" lon="53.1452242"><time>2024-11-03T13:52:50.287</time></trkpt><trkpt lat="56.8318902" lon="53.1452574"><time>2024-11-03T13:52:53.287</time></trkpt><trkpt lat="56.8318390" lon="53.1452874"><time>2024-11-03T13:52:56.293</time></trkpt><trkpt lat="56.8317881" lon="53.1453183"><time>2024-11-03T13:52:59.287</time></trkpt><trkpt lat="56.8317415" lon="53.1453538"><time>2024-11-03T13:53:02.283</time></trkpt><trkpt lat="56.8317267" lon="53.1454538"><time>2024-11-03T13:53:05.287</time></trkpt><trkpt lat="56.8317335" lon="53.1455455"><time>2024-11-03T13:53:08.287</time></trkpt><trkpt lat="56.8317524" lon="53.1456489"><time>2024-11-03T13:53:12.293</time></trkpt><trkpt lat="56.8317761" lon="53.1457314"><time>2024-11-03T13:53:15.287</time></trkpt><trkpt lat="56.8317898" lon="53.1458194"><time>2024-11-03T13:53:18.287</time></trkpt><trkpt lat="56.8318069" lon="53.1459029"><time>2024-11-03T13:53:21.293</time></trkpt><trkpt lat="56.8318456" lon="53.1459628"><time>2024-11-03T13:53:24.290</time></trkpt><trkpt lat="56.8318634" lon="53.1460500"><time>2024-11-03T13:53:27.290</time></trkpt><trkpt lat="56.8318734" lon="53.1461358"><time>2024-11-03T13:53:30.293</time></trkpt><trkpt lat="56.8318790" lon="53.1462253"><time>2024-11-03T13:53:33.290</time></trkpt><trkpt lat="56.8318814" lon="53.1463175"><time>2024-11-03T13:53:36.293</time></trkpt><trkpt lat="56.8318809" lon="53.1464026"><time>2024-11-03T13:53:39.290</time></trkpt><trkpt lat="56.8318931" lon="53.1464823"><time>2024-11-03T13:53:42.287</time></trkpt><trkpt lat="56.8319100" lon="53.1465711"><time>2024-11-03T13:53:45.287</time></trkpt><trkpt lat="56.8319111" lon="53.1466707"><time>2024-11-03T13:53:48.287</time></trkpt><trkpt lat="56.8319153" lon="53.1467615"><time>2024-11-03T13:53:51.293</time></trkpt><trkpt lat="56.8319219" lon="53.1468454"><time>2024-11-03T13:53:54.287</time></trkpt><trkpt lat="56.8319334" lon="53.1469371"><time>2024-11-03T13:53:57.287</time></trkpt><trkpt lat="56.8319446" lon="53.1470278"><time>2024-11-03T13:54:00.293</time></trkpt><trkpt lat="56.8319454" lon="53.1471188"><time>2024-11-03T13:54:03.303</time></trkpt><trkpt lat="56.8319463" lon="53.1471467"><time>2024-11-03T13:54:04.290</time></trkpt><trkpt lat="56.8319647" lon="53.1472279"><time>2024-11-03T13:54:07.297</time></trkpt><trkpt lat="56.8319868" lon="53.1473004"><time>2024-11-03T13:54:10.293</time></trkpt><trkpt lat="56.8320176" lon="53.1473708"><time>2024-11-03T13:54:13.290</time></trkpt><trkpt lat="56.8320400" lon="53.1474439"><time>2024-11-03T13:54:16.297</time></trkpt><trkpt lat="56.8320574" lon="53.1475200"><time>2024-11-03T13:54:19.290</time></trkpt><trkpt lat="56.8320828" lon="53.1476038"><time>2024-11-03T13:54:22.290</time></trkpt><trkpt lat="56.8321084" lon="53.1476989"><time>2024-11-03T13:54:25.300</time></trkpt><trkpt lat="56.8321148" lon="53.1477952"><time>2024-11-03T13:54:28.293</time></trkpt><trkpt lat="56.8321189" lon="53.1478898"><time>2024-11-03T13:54:31.293</time></trkpt><trkpt lat="56.8320829" lon="53.1479534"><time>2024-11-03T13:54:34.297</time></trkpt><trkpt lat="56.8320231" lon="53.1479622"><time>2024-11-03T13:54:37.290</time></trkpt><trkpt lat="56.8319686" lon="53.1479808"><time>2024-11-03T13:54:40.297</time></trkpt><trkpt lat="56.8319167" lon="53.1480004"><time>2024-11-03T13:54:43.297</time></trkpt><trkpt lat="56.8318631" lon="53.1480036"><time>2024-11-03T13:54:46.290</time></trkpt><trkpt lat="56.8318336" lon="53.1480756"><time>2024-11-03T13:54:49.287</time></trkpt><trkpt lat="56.8318466" lon="53.1481606"><time>2024-11-03T13:54:52.297</time></trkpt><trkpt lat="56.8318595" lon="53.1482451"><time>2024-11-03T13:54:55.287</time></trkpt><trkpt lat="56.8318686" lon="53.1483335"><time>2024-11-03T13:54:58.293</time></trkpt><trkpt lat="56.8318781" lon="53.1484236"><time>2024-11-03T13:55:01.297</time></trkpt><trkpt lat="56.8318894" lon="53.1485064"><time>2024-11-03T13:55:04.287</time></trkpt><trkpt lat="56.8318965" lon="53.1485957"><time>2024-11-03T13:55:07.297</time></trkpt><trkpt lat="56.8319071" lon="53.1486794"><time>2024-11-03T13:55:10.293</time></trkpt><trkpt lat="56.8319186" lon="53.1487764"><time>2024-11-03T13:55:13.293</time></trkpt><trkpt lat="56.8319228" lon="53.1488066"><time>2024-11-03T13:55:14.280</time></trkpt><trkpt lat="56.8319384" lon="53.1489002"><time>2024-11-03T13:55:17.273</time></trkpt><trkpt lat="56.8319476" lon="53.1489831"><time>2024-11-03T13:55:20.277</time></trkpt><trkpt lat="56.8319517" lon="53.1490718"><time>2024-11-03T13:55:23.280</time></trkpt><trkpt lat="56.8319638" lon="53.1491625"><time>2024-11-03T13:55:26.277</time></trkpt><trkpt lat="56.8319747" lon="53.1492524"><time>2024-11-03T13:55:29.283</time></trkpt><trkpt lat="56.8319780" lon="53.1493478"><time>2024-11-03T13:55:32.283</time></trkpt><trkpt lat="56.8319833" lon="53.1494401"><time>2024-11-03T13:55:35.290</time></trkpt><trkpt lat="56.8319914" lon="53.1495361"><time>2024-11-03T13:55:38.283</time></trkpt><trkpt lat="56.8320022" lon="53.1496263"><time>2024-11-03T13:55:41.290</time></trkpt><trkpt lat="56.8320136" lon="53.1497125"><time>2024-11-03T13:55:44.290</time></trkpt><trkpt lat="56.8320228" lon="53.1498052"><time>2024-11-03T13:55:47.297</time></trkpt><trkpt lat="56.8320231" lon="53.1499053"><time>2024-11-03T13:55:50.280</time></trkpt><trkpt lat="56.8320338" lon="53.1499952"><time>2024-11-03T13:55:53.293</time></trkpt><trkpt lat="56.8320317" lon="53.1501001"><time>2024-11-03T13:55:56.290</time></trkpt><trkpt lat="56.8320422" lon="53.1501863"><time>2024-11-03T13:55:59.293</time></trkpt><trkpt lat="56.8320557" lon="53.1502688"><time>2024-11-03T13:56:02.293</time></trkpt><trkpt lat="56.8320651" lon="53.1503547"><time>2024-11-03T13:56:05.287</time></trkpt><trkpt lat="56.8320712" lon="53.1504443"><time>2024-11-03T13:56:08.293</time></trkpt><trkpt lat="56.8320747" lon="53.1505344"><time>2024-11-03T13:56:11.290</time></trkpt><trkpt lat="56.8320813" lon="53.1506376"><time>2024-11-03T13:56:14.293</time></trkpt><trkpt lat="56.8320940" lon="53.1507271"><time>2024-11-03T13:56:17.293</time></trkpt><trkpt lat="56.8320912" lon="53.1508186"><time>2024-11-03T13:56:20.290</time></trkpt><trkpt lat="56.8320934" lon="53.1509157"><time>2024-11-03T13:56:23.293</time></trkpt><trkpt lat="56.8321005" lon="53.1510010"><time>2024-11-03T13:56:26.293</time></trkpt><trkpt lat="56.8320950" lon="53.1510968"><time>2024-11-03T13:56:29.290</time></trkpt><trkpt lat="56.8321001" lon="53.1511883"><time>2024-11-03T13:56:32.293</time></trkpt><trkpt lat="56.8320984" lon="53.1512897"><time>2024-11-03T13:56:35.290</time></trkpt><trkpt lat="56.8321148" lon="53.1513730"><time>2024-11-03T13:56:38.280</time></trkpt><trkpt lat="56.8321279" lon="53.1514582"><time>2024-11-03T13:56:41.287</time></trkpt><trkpt lat="56.8321352" lon="53.1514824"><time>2024-11-03T13:56:42.287</time></trkpt><trkpt lat="56.8321700" lon="53.1515575"><time>2024-11-03T13:56:46.277</time></trkpt><trkpt lat="56.8322041" lon="53.1516367"><time>2024-11-03T13:56:50.270</time></trkpt><trkpt lat="56.8322070" lon="53.1517377"><time>2024-11-03T13:56:54.277</time></trkpt><trkpt lat="56.8322166" lon="53.1518239"><time>2024-11-03T13:56:58.277</time></trkpt><trkpt lat="56.8322415" lon="53.1519142"><time>2024-11-03T13:57:02.287</time></trkpt><trkpt lat="56.8322515" lon="53.1520059"><time>2024-11-03T13:57:06.277</time></trkpt><trkpt lat="56.8322663" lon="53.1520909"><time>2024-11-03T13:57:09.273</time></trkpt><trkpt lat="56.8322853" lon="53.1521805"><time>2024-11-03T13:57:12.280</time></trkpt><trkpt lat="56.8323014" lon="53.1522584"><time>2024-11-03T13:57:15.290</time></trkpt><trkpt lat="56.8323295" lon="53.1523245"><time>2024-11-03T13:57:19.283</time></trkpt><trkpt lat="56.8323606" lon="53.1523879"><time>2024-11-03T13:57:23.297</time></trkpt><trkpt lat="56.8323933" lon="53.1524651"><time>2024-11-03T13:57:27.287</time></trkpt><trkpt lat="56.8324535" lon="53.1524675"><time>2024-11-03T13:57:30.277</time></trkpt><trkpt lat="56.8325049" lon="53.1524664"><time>2024-11-03T13:57:32.283</time></trkpt><trkpt lat="56.8325697" lon="53.1525095"><time>2024-11-03T13:57:35.283</time></trkpt><trkpt lat="56.8326064" lon="53.1525755"><time>2024-11-03T13:57:38.290</time></trkpt><trkpt lat="56.8326505" lon="53.1526441"><time>2024-11-03T13:57:41.290</time></trkpt><trkpt lat="56.8327095" lon="53.1527068"><time>2024-11-03T13:57:44.280</time></trkpt><trkpt lat="56.8327549" lon="53.1527705"><time>2024-11-03T13:57:47.297</time></trkpt><trkpt lat="56.8327693" lon="53.1527900"><time>2024-11-03T13:57:48.280</time></trkpt><trkpt lat="56.8328051" lon="53.1528444"><time>2024-11-03T13:57:50.283</time></trkpt><trkpt lat="56.8328520" lon="53.1528748"><time>2024-11-03T13:57:52.283</time></trkpt><trkpt lat="56.8328954" lon="53.1529148"><time>2024-11-03T13:57:54.280</time></trkpt><trkpt lat="56.8329419" lon="53.1529780"><time>2024-11-03T13:57:57.283</time></trkpt><trkpt lat="56.8329959" lon="53.1530191"><time>2024-11-03T13:58:00.290</time></trkpt><trkpt lat="56.8330471" lon="53.1530730"><time>2024-11-03T13:58:03.287</time></trkpt><trkpt lat="56.8330956" lon="53.1531200"><time>2024-11-03T13:58:06.290</time></trkpt><trkpt lat="56.8331387" lon="53.1531923"><time>2024-11-03T13:58:10.293</time></trkpt><trkpt lat="56.8331728" lon="53.1532597"><time>2024-11-03T13:58:13.300</time></trkpt><trkpt lat="56.8331865" lon="53.1532852"><time>2024-11-03T13:58:14.290</time></trkpt><trkpt lat="56.8332076" lon="53.1533678"><time>2024-11-03T13:58:17.290</time></trkpt><trkpt lat="56.8332306" lon="53.1534430"><time>2024-11-03T13:58:21.277</time></trkpt><trkpt lat="56.8332003" lon="53.1533457"><time>2024-11-03T13:58:31.287</time></trkpt><trkpt lat="56.8331959" lon="53.1532526"><time>2024-11-03T13:58:34.290</time></trkpt><trkpt lat="56.8332405" lon="53.1531972"><time>2024-11-03T13:58:38.293</time></trkpt><trkpt lat="56.8332913" lon="53.1531726"><time>2024-11-03T13:58:42.283</time></trkpt><trkpt lat="56.8333469" lon="53.1531795"><time>2024-11-03T13:58:46.283</time></trkpt><trkpt lat="56.8333884" lon="53.1532481"><time>2024-11-03T13:58:50.280</time></trkpt><trkpt lat="56.8334196" lon="53.1533217"><time>2024-11-03T13:58:54.297</time></trkpt><trkpt lat="56.8334600" lon="53.1533984"><time>2024-11-03T13:58:58.293</time></trkpt><trkpt lat="56.8334927" lon="53.1534616"><time>2024-11-03T13:59:02.300</time></trkpt><trkpt lat="56.8335379" lon="53.1534597"><time>2024-11-03T13:59:07.287</time></trkpt><trkpt lat="56.8335377" lon="53.1533755"><time>2024-11-03T13:59:10.290</time></trkpt><trkpt lat="56.8335370" lon="53.1533619"><time>2024-11-03T13:59:18.207</time></trkpt><trkpt lat="56.8335199" lon="53.1532817"><time>2024-11-03T13:59:35.303</time></trkpt><trkpt lat="56.8335196" lon="53.1532646"><time>2024-11-03T13:59:36.287</time></trkpt><trkpt lat="56.8334931" lon="53.1531719"><time>2024-11-03T13:59:40.290</time></trkpt><trkpt lat="56.8334679" lon="53.1530966"><time>2024-11-03T13:59:43.280</time></trkpt><trkpt lat="56.8334423" lon="53.1530034"><time>2024-11-03T13:59:47.290</time></trkpt><trkpt lat="56.8334142" lon="53.1529208"><time>2024-11-03T13:59:51.287</time></trkpt><trkpt lat="56.8333670" lon="53.1528607"><time>2024-11-03T13:59:55.287</time></trkpt><trkpt lat="56.8333161" lon="53.1528800"><time>2024-11-03T13:59:59.293</time></trkpt><trkpt lat="56.8332605" lon="53.1529107"><time>2024-11-03T14:00:03.297</time></trkpt><trkpt lat="56.8332036" lon="53.1529452"><time>2024-11-03T14:00:07.290</time></trkpt><trkpt lat="56.8331586" lon="53.1529498"><time>2024-11-03T14:00:10.297</time></trkpt><trkpt lat="56.8331022" lon="53.1529279"><time>2024-11-03T14:00:14.297</time></trkpt><trkpt lat="56.8330517" lon="53.1528637"><time>2024-11-03T14:00:18.297</time></trkpt><trkpt lat="56.8330149" lon="53.1528035"><time>2024-11-03T14:00:21.300</time></trkpt><trkpt lat="56.8329784" lon="53.1527236"><time>2024-11-03T14:00:24.297</time></trkpt><trkpt lat="56.8329561" lon="53.1526385"><time>2024-11-03T14:00:27.290</time></trkpt><trkpt lat="56.8329377" lon="53.1525484"><time>2024-11-03T14:00:30.290</time></trkpt><trkpt lat="56.8329145" lon="53.1524599"><time>2024-11-03T14:00:33.297</time></trkpt><trkpt lat="56.8328906" lon="53.1523688"><time>2024-11-03T14:00:36.283</time></trkpt><trkpt lat="56.8328523" lon="53.1522833"><time>2024-11-03T14:00:39.300</time></trkpt><trkpt lat="56.8328471" lon="53.1522449"><time>2024-11-03T14:00:40.293</time></trkpt><trkpt lat="56.8328312" lon="53.1521501"><time>2024-11-03T14:00:43.287</time></trkpt><trkpt lat="56.8328071" lon="53.1520722"><time>2024-11-03T14:00:46.293</time></trkpt><trkpt lat="56.8327852" lon="53.1519888"><time>2024-11-03T14:00:49.293</time></trkpt><trkpt lat="56.8327785" lon="53.1518999"><time>2024-11-03T14:00:52.293</time></trkpt><trkpt lat="56.8327568" lon="53.1517980"><time>2024-11-03T14:00:56.290</time></trkpt><trkpt lat="56.8327380" lon="53.1517188"><time>2024-11-03T14:00:59.293</time></trkpt><trkpt lat="56.8327189" lon="53.1516437"><time>2024-11-03T14:01:02.297</time></trkpt><trkpt lat="56.8326894" lon="53.1515566"><time>2024-11-03T14:01:06.290</time></trkpt><trkpt lat="56.8326478" lon="53.1515185"><time>2024-11-03T14:01:10.297</time></trkpt><trkpt lat="56.8325926" lon="53.1514854"><time>2024-11-03T14:01:14.287</time></trkpt><trkpt lat="56.8325454" lon="53.1515186"><time>2024-11-03T14:01:17.300</time></trkpt><trkpt lat="56.8324888" lon="53.1515059"><time>2024-11-03T14:01:21.297</time></trkpt><trkpt lat="56.8324379" lon="53.1515105"><time>2024-11-03T14:01:24.293</time></trkpt><trkpt lat="56.8323868" lon="53.1515247"><time>2024-11-03T14:01:27.297</time></trkpt><trkpt lat="56.8323350" lon="53.1515294"><time>2024-11-03T14:01:30.290</time></trkpt><trkpt lat="56.8322855" lon="53.1515072"><time>2024-11-03T14:01:33.287</time></trkpt><trkpt lat="56.8322370" lon="53.1514931"><time>2024-11-03T14:01:36.287</time></trkpt><trkpt lat="56.8321875" lon="53.1514411"><time>2024-11-03T14:01:40.297</time></trkpt><trkpt lat="56.8321386" lon="53.1514194"><time>2024-11-03T14:01:43.297</time></trkpt><trkpt lat="56.8320904" lon="53.1513955"><time>2024-11-03T14:01:46.300</time></trkpt><trkpt lat="56.8320746" lon="53.1513825"><time>2024-11-03T14:01:47.297</time></trkpt><trkpt lat="56.8320444" lon="53.1513201"><time>2024-11-03T14:01:50.293</time></trkpt><trkpt lat="56.8320259" lon="53.1512235"><time>2024-11-03T14:01:54.283</time></trkpt><trkpt lat="56.8320113" lon="53.1511390"><time>2024-11-03T14:01:58.273</time></trkpt><trkpt lat="56.8320068" lon="53.1510516"><time>2024-11-03T14:02:02.280</time></trkpt><trkpt lat="56.8320041" lon="53.1509582"><time>2024-11-03T14:02:06.280</time></trkpt><trkpt lat="56.8319829" lon="53.1508714"><time>2024-11-03T14:02:10.283</time></trkpt><trkpt lat="56.8319640" lon="53.1507792"><time>2024-11-03T14:02:14.283</time></trkpt><trkpt lat="56.8319491" lon="53.1506848"><time>2024-11-03T14:02:19.273</time></trkpt><trkpt lat="56.8319561" lon="53.1506009"><time>2024-11-03T14:02:22.280</time></trkpt><trkpt lat="56.8319624" lon="53.1505136"><time>2024-11-03T14:02:25.283</time></trkpt><trkpt lat="56.8319440" lon="53.1504321"><time>2024-11-03T14:02:28.290</time></trkpt><trkpt lat="56.8319318" lon="53.1503478"><time>2024-11-03T14:02:31.297</time></trkpt><trkpt lat="56.8319250" lon="53.1503215"><time>2024-11-03T14:02:32.287</time></trkpt><trkpt lat="56.8319131" lon="53.1502159"><time>2024-11-03T14:02:36.287</time></trkpt><trkpt lat="56.8318721" lon="53.1501590"><time>2024-11-03T14:02:39.287</time></trkpt><trkpt lat="56.8318236" lon="53.1501362"><time>2024-11-03T14:02:42.290</time></trkpt><trkpt lat="56.8317695" lon="53.1501541"><time>2024-11-03T14:02:45.290</time></trkpt><trkpt lat="56.8317227" lon="53.1501541"><time>2024-11-03T14:02:48.300</time></trkpt><trkpt lat="56.8316777" lon="53.1501452"><time>2024-11-03T14:02:51.290</time></trkpt><trkpt lat="56.8316335" lon="53.1501230"><time>2024-11-03T14:02:54.293</time></trkpt><trkpt lat="56.8315828" lon="53.1501094"><time>2024-11-03T14:02:57.297</time></trkpt><trkpt lat="56.8315378" lon="53.1501010"><time>2024-11-03T14:03:00.293</time></trkpt><trkpt lat="56.8314894" lon="53.1500639"><time>2024-11-03T14:03:04.280</time></trkpt><trkpt lat="56.8314953" lon="53.1500549"><time>2024-11-03T14:03:16.580</time></trkpt><trkpt lat="56.8314417" lon="53.1501270"><time>2024-11-03T14:03:26.300</time></trkpt><trkpt lat="56.8314273" lon="53.1501347"><time>2024-11-03T14:03:27.277</time></trkpt><trkpt lat="56.8313729" lon="53.1501721"><time>2024-11-03T14:03:30.290</time></trkpt><trkpt lat="56.8313891" lon="53.1502699"><time>2024-11-03T14:03:33.287</time></trkpt><trkpt lat="56.8313813" lon="53.1503517"><time>2024-11-03T14:03:36.280</time></trkpt><trkpt lat="56.8313404" lon="53.1504064"><time>2024-11-03T14:03:40.287</time></trkpt><trkpt lat="56.8312926" lon="53.1504522"><time>2024-11-03T14:03:44.280</time></trkpt><trkpt lat="56.8312419" lon="53.1504844"><time>2024-11-03T14:03:47.310</time></trkpt><trkpt lat="56.8312171" lon="53.1503963"><time>2024-11-03T14:03:51.283</time></trkpt><trkpt lat="56.8312177" lon="53.1502951"><time>2024-11-03T14:03:55.293</time></trkpt><trkpt lat="56.8312211" lon="53.1501927"><time>2024-11-03T14:03:59.290</time></trkpt><trkpt lat="56.8312376" lon="53.1501008"><time>2024-11-03T14:04:03.293</time></trkpt><trkpt lat="56.8312307" lon="53.1500181"><time>2024-11-03T14:04:06.287</time></trkpt><trkpt lat="56.8312156" lon="53.1499096"><time>2024-11-03T14:04:10.287</time></trkpt><trkpt lat="56.8311770" lon="53.1498332"><time>2024-11-03T14:04:13.290</time></trkpt><trkpt lat="56.8311361" lon="53.1497754"><time>2024-11-03T14:04:16.297</time></trkpt><trkpt lat="56.8311035" lon="53.1497005"><time>2024-11-03T14:04:19.293</time></trkpt><trkpt lat="56.8310756" lon="53.1496276"><time>2024-11-03T14:04:22.293</time></trkpt><trkpt lat="56.8310457" lon="53.1495564"><time>2024-11-03T14:04:25.297</time></trkpt><trkpt lat="56.8310147" lon="53.1494933"><time>2024-11-03T14:04:28.300</time></trkpt><trkpt lat="56.8310080" lon="53.1494107"><time>2024-11-03T14:04:31.290</time></trkpt><trkpt lat="56.8309945" lon="53.1493293"><time>2024-11-03T14:04:34.293</time></trkpt><trkpt lat="56.8309886" lon="53.1492406"><time>2024-11-03T14:04:37.300</time></trkpt><trkpt lat="56.8309850" lon="53.1491562"><time>2024-11-03T14:04:40.297</time></trkpt><trkpt lat="56.8309731" lon="53.1490554"><time>2024-11-03T14:04:43.290</time></trkpt><trkpt lat="56.8309626" lon="53.1489573"><time>2024-11-03T14:04:46.300</time></trkpt><trkpt lat="56.8309524" lon="53.1488560"><time>2024-11-03T14:04:49.297</time></trkpt><trkpt lat="56.8309540" lon="53.1487473"><time>2024-11-03T14:04:52.297</time></trkpt><trkpt lat="56.8309520" lon="53.1486417"><time>2024-11-03T14:04:55.297</time></trkpt><trkpt lat="56.8309432" lon="53.1485458"><time>2024-11-03T14:04:58.297</time></trkpt><trkpt lat="56.8309259" lon="53.1484559"><time>2024-11-03T14:05:01.297</time></trkpt><trkpt lat="56.8308854" lon="53.1485526"><time>2024-11-03T14:05:53.293</time></trkpt><trkpt lat="56.8308321" lon="53.1485297"><time>2024-11-03T14:05:57.297</time></trkpt><trkpt lat="56.8307957" lon="53.1484675"><time>2024-11-03T14:06:00.290</time></trkpt><trkpt lat="56.8307614" lon="53.1483982"><time>2024-11-03T14:06:03.287</time></trkpt><trkpt lat="56.8307184" lon="53.1483509"><time>2024-11-03T14:06:06.290</time></trkpt><trkpt lat="56.8306665" lon="53.1483183"><time>2024-11-03T14:06:09.283</time></trkpt><trkpt lat="56.8306192" lon="53.1482992"><time>2024-11-03T14:06:12.287</time></trkpt><trkpt lat="56.8305668" lon="53.1483050"><time>2024-11-03T14:06:15.297</time></trkpt><trkpt lat="56.8305092" lon="53.1483034"><time>2024-11-03T14:06:19.287</time></trkpt><trkpt lat="56.8304508" lon="53.1482988"><time>2024-11-03T14:06:23.290</time></trkpt><trkpt lat="56.8304045" lon="53.1483049"><time>2024-11-03T14:06:26.297</time></trkpt><trkpt lat="56.8303586" lon="53.1482726"><time>2024-11-03T14:06:29.297</time></trkpt><trkpt lat="56.8303060" lon="53.1482770"><time>2024-11-03T14:06:32.297</time></trkpt><trkpt lat="56.8302555" lon="53.1482879"><time>2024-11-03T14:06:35.290</time></trkpt><trkpt lat="56.8302100" lon="53.1482899"><time>2024-11-03T14:06:38.287</time></trkpt><trkpt lat="56.8301604" lon="53.1482903"><time>2024-11-03T14:06:41.313</time></trkpt><trkpt lat="56.8301455" lon="53.1482887"><time>2024-11-03T14:06:42.297</time></trkpt><trkpt lat="56.8300954" lon="53.1482913"><time>2024-11-03T14:06:45.290</time></trkpt><trkpt lat="56.8300438" lon="53.1482943"><time>2024-11-03T14:06:48.293</time></trkpt><trkpt lat="56.8299863" lon="53.1483028"><time>2024-11-03T14:06:51.277</time></trkpt><trkpt lat="56.8299301" lon="53.1483137"><time>2024-11-03T14:06:54.273</time></trkpt><trkpt lat="56.8298807" lon="53.1483246"><time>2024-11-03T14:06:57.283</time></trkpt><trkpt lat="56.8298251" lon="53.1483250"><time>2024-11-03T14:07:01.287</time></trkpt><trkpt lat="56.8297736" lon="53.1483352"><time>2024-11-03T14:07:05.293</time></trkpt><trkpt lat="56.8297255" lon="53.1483647"><time>2024-11-03T14:07:08.287</time></trkpt><trkpt lat="56.8296767" lon="53.1483766"><time>2024-11-03T14:07:11.290</time></trkpt><trkpt lat="56.8296225" lon="53.1483738"><time>2024-11-03T14:07:14.290</time></trkpt><trkpt lat="56.8295762" lon="53.1483852"><time>2024-11-03T14:07:17.297</time></trkpt><trkpt lat="56.8295183" lon="53.1483786"><time>2024-11-03T14:07:21.290</time></trkpt><trkpt lat="56.8294619" lon="53.1483599"><time>2024-11-03T14:07:24.290</time></trkpt><trkpt lat="56.8294009" lon="53.1483588"><time>2024-11-03T14:07:27.290</time></trkpt><trkpt lat="56.8293501" lon="53.1483442"><time>2024-11-03T14:07:30.290</time></trkpt><trkpt lat="56.8293002" lon="53.1483370"><time>2024-11-03T14:07:33.287</time></trkpt><trkpt lat="56.8292504" lon="53.1483438"><time>2024-11-03T14:07:36.303</time></trkpt><trkpt lat="56.8292341" lon="53.1483440"><time>2024-11-03T14:07:37.293</time></trkpt><trkpt lat="56.8291743" lon="53.1483577"><time>2024-11-03T14:07:41.293</time></trkpt><trkpt lat="56.8291251" lon="53.1483619"><time>2024-11-03T14:07:44.290</time></trkpt><trkpt lat="56.8290735" lon="53.1483548"><time>2024-11-03T14:07:47.293</time></trkpt><trkpt lat="56.8290210" lon="53.1483549"><time>2024-11-03T14:07:50.297</time></trkpt><trkpt lat="56.8289755" lon="53.1483612"><time>2024-11-03T14:07:53.293</time></trkpt><trkpt lat="56.8289283" lon="53.1483760"><time>2024-11-03T14:07:56.290</time></trkpt><trkpt lat="56.8288800" lon="53.1483883"><time>2024-11-03T14:07:59.287</time></trkpt><trkpt lat="56.8288274" lon="53.1483918"><time>2024-11-03T14:08:02.290</time></trkpt><trkpt lat="56.8287769" lon="53.1483932"><time>2024-11-03T14:08:05.310</time></trkpt><trkpt lat="56.8287591" lon="53.1483899"><time>2024-11-03T14:08:06.293</time></trkpt><trkpt lat="56.8287092" lon="53.1483946"><time>2024-11-03T14:08:09.290</time></trkpt><trkpt lat="56.8286620" lon="53.1483687"><time>2024-11-03T14:08:12.297</time></trkpt><trkpt lat="56.8286114" lon="53.1483600"><time>2024-11-03T14:08:15.290</time></trkpt><trkpt lat="56.8285691" lon="53.1483256"><time>2024-11-03T14:08:18.293</time></trkpt><trkpt lat="56.8285281" lon="53.1482570"><time>2024-11-03T14:08:22.293</time></trkpt><trkpt lat="56.8284965" lon="53.1481851"><time>2024-11-03T14:08:26.287</time></trkpt><trkpt lat="56.8284432" lon="53.1481845"><time>2024-11-03T14:08:30.287</time></trkpt><trkpt lat="56.8283865" lon="53.1482061"><time>2024-11-03T14:08:34.287</time></trkpt><trkpt lat="56.8283285" lon="53.1482135"><time>2024-11-03T14:08:38.293</time></trkpt><trkpt lat="56.8282891" lon="53.1481709"><time>2024-11-03T14:08:42.293</time></trkpt><trkpt lat="56.8283191" lon="53.1480981"><time>2024-11-03T14:08:51.297</time></trkpt><trkpt lat="56.8283088" lon="53.1481925"><time>2024-11-03T14:09:08.287</time></trkpt><trkpt lat="56.8283261" lon="53.1481930"><time>2024-11-03T14:09:11.260</time></trkpt><trkpt lat="56.8283557" lon="53.1481866"><time>2024-11-03T14:09:26.357</time></trkpt><trkpt lat="56.8283567" lon="53.1482027"><time>2024-11-03T14:09:27.277</time></trkpt><trkpt lat="56.8283129" lon="53.1482593"><time>2024-11-03T14:09:31.287</time></trkpt><trkpt lat="56.8282655" lon="53.1482759"><time>2024-11-03T14:09:34.287</time></trkpt><trkpt lat="56.8283100" lon="53.1482437"><time>2024-11-03T14:09:47.277</time></trkpt><trkpt lat="56.8283637" lon="53.1482776"><time>2024-11-03T14:09:51.287</time></trkpt><trkpt lat="56.8284082" lon="53.1482592"><time>2024-11-03T14:09:54.297</time></trkpt><trkpt lat="56.8284637" lon="53.1482160"><time>2024-11-03T14:09:57.297</time></trkpt><trkpt lat="56.8285041" lon="53.1481518"><time>2024-11-03T14:10:00.277</time></trkpt><trkpt lat="56.8285382" lon="53.1480798"><time>2024-11-03T14:10:03.283</time></trkpt><trkpt lat="56.8285442" lon="53.1479800"><time>2024-11-03T14:10:12.290</time></trkpt><trkpt lat="56.8285347" lon="53.1478861"><time>2024-11-03T14:10:17.297</time></trkpt><trkpt lat="56.8285425" lon="53.1477968"><time>2024-11-03T14:10:24.283</time></trkpt><trkpt lat="56.8285660" lon="53.1477097"><time>2024-11-03T14:10:28.290</time></trkpt><trkpt lat="56.8285992" lon="53.1476494"><time>2024-11-03T14:10:32.293</time></trkpt><trkpt lat="56.8286472" lon="53.1476038"><time>2024-11-03T14:10:36.293</time></trkpt><trkpt lat="56.8286925" lon="53.1475971"><time>2024-11-03T14:10:39.283</time></trkpt><trkpt lat="56.8287390" lon="53.1475851"><time>2024-11-03T14:10:42.287</time></trkpt><trkpt lat="56.8287853" lon="53.1475461"><time>2024-11-03T14:10:45.283</time></trkpt><trkpt lat="56.8288333" lon="53.1475156"><time>2024-11-03T14:10:48.293</time></trkpt><trkpt lat="56.8288833" lon="53.1475148"><time>2024-11-03T14:10:51.290</time></trkpt><trkpt lat="56.8289309" lon="53.1474907"><time>2024-11-03T14:10:54.287</time></trkpt><trkpt lat="56.8289763" lon="53.1474740"><time>2024-11-03T14:10:57.290</time></trkpt><trkpt lat="56.8290181" lon="53.1474353"><time>2024-11-03T14:11:00.287</time></trkpt><trkpt lat="56.8290498" lon="53.1473550"><time>2024-11-03T14:11:04.287</time></trkpt><trkpt lat="56.8290723" lon="53.1472781"><time>2024-11-03T14:11:07.293</time></trkpt><trkpt lat="56.8290964" lon="53.1472047"><time>2024-11-03T14:11:10.300</time></trkpt><trkpt lat="56.8291013" lon="53.1471111"><time>2024-11-03T14:11:13.293</time></trkpt><trkpt lat="56.8290929" lon="53.1470141"><time>2024-11-03T14:11:17.297</time></trkpt><trkpt lat="56.8290767" lon="53.1469315"><time>2024-11-03T14:11:22.290</time></trkpt><trkpt lat="56.8290569" lon="53.1468576"><time>2024-11-03T14:11:26.300</time></trkpt><trkpt lat="56.8290554" lon="53.1467754"><time>2024-11-03T14:11:29.300</time></trkpt><trkpt lat="56.8290557" lon="53.1466813"><time>2024-11-03T14:11:33.287</time></trkpt><trkpt lat="56.8290633" lon="53.1465921"><time>2024-11-03T14:11:36.277</time></trkpt><trkpt lat="56.8290407" lon="53.1465033"><time>2024-11-03T14:11:39.287</time></trkpt><trkpt lat="56.8290096" lon="53.1464235"><time>2024-11-03T14:11:42.287</time></trkpt><trkpt lat="56.8289732" lon="53.1463413"><time>2024-11-03T14:11:46.287</time></trkpt><trkpt lat="56.8289436" lon="53.1462448"><time>2024-11-03T14:11:50.287</time></trkpt><trkpt lat="56.8289136" lon="53.1461729"><time>2024-11-03T14:11:53.293</time></trkpt><trkpt lat="56.8288711" lon="53.1461072"><time>2024-11-03T14:11:56.297</time></trkpt><trkpt lat="56.8288255" lon="53.1460830"><time>2024-11-03T14:11:59.287</time></trkpt><trkpt lat="56.8287800" lon="53.1460508"><time>2024-11-03T14:12:02.287</time></trkpt><trkpt lat="56.8287350" lon="53.1460332"><time>2024-11-03T14:12:05.287</time></trkpt><trkpt lat="56.8286999" lon="53.1459817"><time>2024-11-03T14:12:08.293</time></trkpt><trkpt lat="56.8286656" lon="53.1459158"><time>2024-11-03T14:12:11.303</time></trkpt><trkpt lat="56.8286569" lon="53.1458325"><time>2024-11-03T14:12:15.297</time></trkpt><trkpt lat="56.8286526" lon="53.1457276"><time>2024-11-03T14:12:19.303</time></trkpt><trkpt lat="56.8286486" lon="53.1456351"><time>2024-11-03T14:12:22.290</time></trkpt><trkpt lat="56.8286411" lon="53.1455411"><time>2024-11-03T14:12:25.287</time></trkpt><trkpt lat="56.8286466" lon="53.1454500"><time>2024-11-03T14:12:28.287</time></trkpt><trkpt lat="56.8286504" lon="53.1453679"><time>2024-11-03T14:12:31.297</time></trkpt><trkpt lat="56.8286574" lon="53.1452835"><time>2024-11-03T14:12:34.293</time></trkpt><trkpt lat="56.8286540" lon="53.1451845"><time>2024-11-03T14:12:37.293</time></trkpt><trkpt lat="56.8286572" lon="53.1450812"><time>2024-11-03T14:12:40.300</time></trkpt><trkpt lat="56.8286600" lon="53.1449807"><time>2024-11-03T14:12:43.293</time></trkpt><trkpt lat="56.8286559" lon="53.1448787"><time>2024-11-03T14:12:46.303</time></trkpt><trkpt lat="56.8286586" lon="53.1447747"><time>2024-11-03T14:12:49.303</time></trkpt><trkpt lat="56.8286573" lon="53.1446718"><time>2024-11-03T14:12:52.287</time></trkpt><trkpt lat="56.8286516" lon="53.1445673"><time>2024-11-03T14:12:55.297</time></trkpt><trkpt lat="56.8286420" lon="53.1444682"><time>2024-11-03T14:12:58.290</time></trkpt><trkpt lat="56.8286383" lon="53.1443731"><time>2024-11-03T14:13:01.290</time></trkpt><trkpt lat="56.8286358" lon="53.1442728"><time>2024-11-03T14:13:05.290</time></trkpt><trkpt lat="56.8286431" lon="53.1441759"><time>2024-11-03T14:13:09.300</time></trkpt><trkpt lat="56.8286442" lon="53.1441482"><time>2024-11-03T14:13:10.287</time></trkpt><trkpt lat="56.8286387" lon="53.1440598"><time>2024-11-03T14:13:13.293</time></trkpt><trkpt lat="56.8286363" lon="53.1439545"><time>2024-11-03T14:13:17.300</time></trkpt><trkpt lat="56.8286342" lon="53.1438694"><time>2024-11-03T14:13:20.297</time></trkpt><trkpt lat="56.8286302" lon="53.1437865"><time>2024-11-03T14:13:23.293</time></trkpt><trkpt lat="56.8286337" lon="53.1436955"><time>2024-11-03T14:13:26.293</time></trkpt><trkpt lat="56.8286265" lon="53.1435861"><time>2024-11-03T14:13:29.303</time></trkpt><trkpt lat="56.8286266" lon="53.1434911"><time>2024-11-03T14:13:32.303</time></trkpt><trkpt lat="56.8286024" lon="53.1433817"><time>2024-11-03T14:13:35.297</time></trkpt><trkpt lat="56.8285675" lon="53.1433219"><time>2024-11-03T14:13:37.290</time></trkpt><trkpt lat="56.8285173" lon="53.1432699"><time>2024-11-03T14:13:40.297</time></trkpt><trkpt lat="56.8284747" lon="53.1432022"><time>2024-11-03T14:13:43.293</time></trkpt><trkpt lat="56.8284598" lon="53.1431135"><time>2024-11-03T14:13:46.300</time></trkpt><trkpt lat="56.8284514" lon="53.1430270"><time>2024-11-03T14:13:49.293</time></trkpt><trkpt lat="56.8284330" lon="53.1429443"><time>2024-11-03T14:13:52.297</time></trkpt><trkpt lat="56.8284250" lon="53.1428591"><time>2024-11-03T14:13:55.303</time></trkpt><trkpt lat="56.8284191" lon="53.1427651"><time>2024-11-03T14:13:58.307</time></trkpt><trkpt lat="56.8284132" lon="53.1426672"><time>2024-11-03T14:14:01.297</time></trkpt><trkpt lat="56.8283896" lon="53.1425747"><time>2024-11-03T14:14:04.297</time></trkpt><trkpt lat="56.8283907" lon="53.1424707"><time>2024-11-03T14:14:07.287</time></trkpt><trkpt lat="56.8284244" lon="53.1423813"><time>2024-11-03T14:14:21.290</time></trkpt><trkpt lat="56.8284422" lon="53.1423034"><time>2024-11-03T14:14:25.313</time></trkpt><trkpt lat="56.8284367" lon="53.1422726"><time>2024-11-03T14:14:26.310</time></trkpt><trkpt lat="56.8283940" lon="53.1422072"><time>2024-11-03T14:14:29.300</time></trkpt><trkpt lat="56.8283375" lon="53.1422203"><time>2024-11-03T14:14:32.300</time></trkpt><trkpt lat="56.8282887" lon="53.1422097"><time>2024-11-03T14:14:35.297</time></trkpt><trkpt lat="56.8282419" lon="53.1421759"><time>2024-11-03T14:14:38.300</time></trkpt><trkpt lat="56.8282005" lon="53.1421347"><time>2024-11-03T14:14:41.300</time></trkpt><trkpt lat="56.8281613" lon="53.1420878"><time>2024-11-03T14:14:45.283</time></trkpt><trkpt lat="56.8281064" lon="53.1420873"><time>2024-11-03T14:14:49.297</time></trkpt><trkpt lat="56.8280527" lon="53.1420646"><time>2024-11-03T14:14:53.297</time></trkpt><trkpt lat="56.8280084" lon="53.1420300"><time>2024-11-03T14:14:56.307</time></trkpt><trkpt lat="56.8279585" lon="53.1420248"><time>2024-11-03T14:14:59.320</time></trkpt><trkpt lat="56.8279426" lon="53.1420191"><time>2024-11-03T14:15:00.300</time></trkpt><trkpt lat="56.8278946" lon="53.1419995"><time>2024-11-03T14:15:03.323</time></trkpt><trkpt lat="56.8278456" lon="53.1419904"><time>2024-11-03T14:15:06.303</time></trkpt><trkpt lat="56.8277969" lon="53.1419632"><time>2024-11-03T14:15:09.297</time></trkpt><trkpt lat="56.8277522" lon="53.1419246"><time>2024-11-03T14:15:12.307</time></trkpt><trkpt lat="56.8277133" lon="53.1418454"><time>2024-11-03T14:15:16.307</time></trkpt><trkpt lat="56.8277162" lon="53.1417442"><time>2024-11-03T14:15:19.303</time></trkpt><trkpt lat="56.8277182" lon="53.1416501"><time>2024-11-03T14:15:22.307</time></trkpt><trkpt lat="56.8277165" lon="53.1415462"><time>2024-11-03T14:15:26.300</time></trkpt><trkpt lat="56.8277126" lon="53.1414543"><time>2024-11-03T14:15:30.287</time></trkpt><trkpt lat="56.8276950" lon="53.1413706"><time>2024-11-03T14:15:37.287</time></trkpt><trkpt lat="56.8276999" lon="53.1412771"><time>2024-11-03T14:15:43.290</time></trkpt><trkpt lat="56.8276941" lon="53.1411762"><time>2024-11-03T14:15:49.287</time></trkpt><trkpt lat="56.8276887" lon="53.1410885"><time>2024-11-03T14:15:54.287</time></trkpt><trkpt lat="56.8276940" lon="53.1411768"><time>2024-11-03T14:16:20.283</time></trkpt><trkpt lat="56.8276926" lon="53.1412621"><time>2024-11-03T14:16:24.283</time></trkpt><trkpt lat="56.8277021" lon="53.1413487"><time>2024-11-03T14:16:29.297</time></trkpt><trkpt lat="56.8277225" lon="53.1414474"><time>2024-11-03T14:16:37.283</time></trkpt><trkpt lat="56.8276883" lon="53.1415399"><time>2024-11-03T14:16:42.280</time></trkpt><trkpt lat="56.8276381" lon="53.1415795"><time>2024-11-03T14:16:55.293</time></trkpt><trkpt lat="56.8275972" lon="53.1416242"><time>2024-11-03T14:17:00.297</time></trkpt><trkpt lat="56.8275537" lon="53.1416518"><time>2024-11-03T14:17:04.297</time></trkpt><trkpt lat="56.8275422" lon="53.1417080"><time>2024-11-03T14:18:03.840</time></trkpt><trkpt lat="56.8275449" lon="53.1417327"><time>2024-11-03T14:18:07.287</time></trkpt><trkpt lat="56.8275351" lon="53.1417086"><time>2024-11-03T14:18:08.287</time></trkpt><trkpt lat="56.8275105" lon="53.1416350"><time>2024-11-03T14:18:26.290</time></trkpt><trkpt lat="56.8274722" lon="53.1417105"><time>2024-11-03T14:18:35.293</time></trkpt><trkpt lat="56.8274331" lon="53.1417747"><time>2024-11-03T14:18:39.297</time></trkpt><trkpt lat="56.8273996" lon="53.1418314"><time>2024-11-03T14:18:42.293</time></trkpt><trkpt lat="56.8273642" lon="53.1418822"><time>2024-11-03T14:18:45.293</time></trkpt><trkpt lat="56.8273313" lon="53.1419590"><time>2024-11-03T14:18:49.290</time></trkpt><trkpt lat="56.8272833" lon="53.1419834"><time>2024-11-03T14:18:52.293</time></trkpt><trkpt lat="56.8272357" lon="53.1420014"><time>2024-11-03T14:18:55.290</time></trkpt><trkpt lat="56.8272010" lon="53.1420868"><time>2024-11-03T14:18:59.303</time></trkpt><trkpt lat="56.8271965" lon="53.1421933"><time>2024-11-03T14:19:03.297</time></trkpt><trkpt lat="56.8272012" lon="53.1423002"><time>2024-11-03T14:19:07.297</time></trkpt><trkpt lat="56.8272044" lon="53.1424035"><time>2024-11-03T14:19:11.300</time></trkpt><trkpt lat="56.8271962" lon="53.1424998"><time>2024-11-03T14:19:15.303</time></trkpt><trkpt lat="56.8271508" lon="53.1425506"><time>2024-11-03T14:19:18.297</time></trkpt><trkpt lat="56.8270991" lon="53.1425641"><time>2024-11-03T14:19:21.303</time></trkpt><trkpt lat="56.8270523" lon="53.1425775"><time>2024-11-03T14:19:24.293</time></trkpt><trkpt lat="56.8270067" lon="53.1425883"><time>2024-11-03T14:19:27.307</time></trkpt><trkpt lat="56.8269539" lon="53.1425963"><time>2024-11-03T14:19:30.297</time></trkpt><trkpt lat="56.8269085" lon="53.1425969"><time>2024-11-03T14:19:33.297</time></trkpt><trkpt lat="56.8268620" lon="53.1426018"><time>2024-11-03T14:19:36.297</time></trkpt><trkpt lat="56.8268163" lon="53.1426084"><time>2024-11-03T14:19:39.293</time></trkpt><trkpt lat="56.8267698" lon="53.1426043"><time>2024-11-03T14:19:42.297</time></trkpt><trkpt lat="56.8267340" lon="53.1425456"><time>2024-11-03T14:19:45.293</time></trkpt><trkpt lat="56.8267183" lon="53.1424652"><time>2024-11-03T14:19:48.307</time></trkpt><trkpt lat="56.8267040" lon="53.1423848"><time>2024-11-03T14:19:51.297</time></trkpt><trkpt lat="56.8266986" lon="53.1422958"><time>2024-11-03T14:19:54.293</time></trkpt><trkpt lat="56.8266899" lon="53.1422074"><time>2024-11-03T14:19:57.297</time></trkpt><trkpt lat="56.8266803" lon="53.1421243"><time>2024-11-03T14:20:00.293</time></trkpt><trkpt lat="56.8266583" lon="53.1420389"><time>2024-11-03T14:20:03.287</time></trkpt><trkpt lat="56.8266601" lon="53.1419502"><time>2024-11-03T14:20:06.280</time></trkpt><trkpt lat="56.8266494" lon="53.1418462"><time>2024-11-03T14:20:10.287</time></trkpt><trkpt lat="56.8266428" lon="53.1417511"><time>2024-11-03T14:20:14.293</time></trkpt><trkpt lat="56.8266280" lon="53.1416528"><time>2024-11-03T14:20:18.280</time></trkpt><trkpt lat="56.8266183" lon="53.1415702"><time>2024-11-03T14:20:21.287</time></trkpt><trkpt lat="56.8266167" lon="53.1414863"><time>2024-11-03T14:20:24.293</time></trkpt><trkpt lat="56.8266105" lon="53.1414006"><time>2024-11-03T14:20:27.297</time></trkpt><trkpt lat="56.8266003" lon="53.1413055"><time>2024-11-03T14:20:31.287</time></trkpt><trkpt lat="56.8265926" lon="53.1411995"><time>2024-11-03T14:20:34.300</time></trkpt><trkpt lat="56.8266047" lon="53.1411108"><time>2024-11-03T14:20:38.293</time></trkpt><trkpt lat="56.8265987" lon="53.1410247"><time>2024-11-03T14:20:41.300</time></trkpt><trkpt lat="56.8265946" lon="53.1409214"><time>2024-11-03T14:20:44.297</time></trkpt><trkpt lat="56.8265919" lon="53.1408023"><time>2024-11-03T14:20:47.307</time></trkpt><trkpt lat="56.8265855" lon="53.1406943"><time>2024-11-03T14:20:50.297</time></trkpt><trkpt lat="56.8265771" lon="53.1405909"><time>2024-11-03T14:20:53.297</time></trkpt><trkpt lat="56.8265670" lon="53.1404848"><time>2024-11-03T14:20:56.300</time></trkpt><trkpt lat="56.8265672" lon="53.1403790"><time>2024-11-03T14:20:59.300</time></trkpt><trkpt lat="56.8265656" lon="53.1402804"><time>2024-11-03T14:21:02.297</time></trkpt><trkpt lat="56.8265589" lon="53.1401791"><time>2024-11-03T14:21:05.297</time></trkpt><trkpt lat="56.8265488" lon="53.1400741"><time>2024-11-03T14:21:08.293</time></trkpt><trkpt lat="56.8265346" lon="53.1399945"><time>2024-11-03T14:21:10.300</time></trkpt><trkpt lat="56.8265227" lon="53.1398891"><time>2024-11-03T14:21:13.303</time></trkpt><trkpt lat="56.8265179" lon="53.1397887"><time>2024-11-03T14:21:16.300</time></trkpt><trkpt lat="56.8265092" lon="53.1396880"><time>2024-11-03T14:21:19.307</time></trkpt><trkpt lat="56.8265054" lon="53.1395847"><time>2024-11-03T14:21:22.300</time></trkpt><trkpt lat="56.8265037" lon="53.1394784"><time>2024-11-03T14:21:25.303</time></trkpt><trkpt lat="56.8265119" lon="53.1393814"><time>2024-11-03T14:21:28.307</time></trkpt><trkpt lat="56.8265241" lon="53.1392901"><time>2024-11-03T14:21:31.297</time></trkpt><trkpt lat="56.8265273" lon="53.1391968"><time>2024-11-03T14:21:34.307</time></trkpt><trkpt lat="56.8265321" lon="53.1391009"><time>2024-11-03T14:21:37.300</time></trkpt><trkpt lat="56.8265278" lon="53.1389961"><time>2024-11-03T14:21:40.303</time></trkpt><trkpt lat="56.8265289" lon="53.1389082"><time>2024-11-03T14:21:43.297</time></trkpt><trkpt lat="56.8265347" lon="53.1388255"><time>2024-11-03T14:21:46.297</time></trkpt><trkpt lat="56.8265229" lon="53.1387404"><time>2024-11-03T14:21:49.303</time></trkpt><trkpt lat="56.8265227" lon="53.1386525"><time>2024-11-03T14:21:52.303</time></trkpt><trkpt lat="56.8265334" lon="53.1385535"><time>2024-11-03T14:21:56.310</time></trkpt><trkpt lat="56.8265368" lon="53.1385280"><time>2024-11-03T14:21:57.307</time></trkpt><trkpt lat="56.8265242" lon="53.1384414"><time>2024-11-03T14:22:00.303</time></trkpt><trkpt lat="56.8265222" lon="53.1383362"><time>2024-11-03T14:22:04.293</time></trkpt><trkpt lat="56.8265303" lon="53.1382288"><time>2024-11-03T14:22:08.307</time></trkpt><trkpt lat="56.8265328" lon="53.1381441"><time>2024-11-03T14:22:11.303</time></trkpt><trkpt lat="56.8265173" lon="53.1380568"><time>2024-11-03T14:22:14.307</time></trkpt><trkpt lat="56.8265056" lon="53.1379518"><time>2024-11-03T14:22:18.297</time></trkpt><trkpt lat="56.8264859" lon="53.1378762"><time>2024-11-03T14:22:21.297</time></trkpt><trkpt lat="56.8264646" lon="53.1377741"><time>2024-11-03T14:22:25.297</time></trkpt><trkpt lat="56.8264473" lon="53.1376859"><time>2024-11-03T14:22:28.300</time></trkpt><trkpt lat="56.8264340" lon="53.1375990"><time>2024-11-03T14:22:31.300</time></trkpt><trkpt lat="56.8264188" lon="53.1375063"><time>2024-11-03T14:22:34.307</time></trkpt><trkpt lat="56.8264013" lon="53.1374114"><time>2024-11-03T14:22:37.297</time></trkpt><trkpt lat="56.8263807" lon="53.1373266"><time>2024-11-03T14:22:40.297</time></trkpt><trkpt lat="56.8263670" lon="53.1372429"><time>2024-11-03T14:22:43.310</time></trkpt><trkpt lat="56.8263504" lon="53.1371595"><time>2024-11-03T14:22:46.310</time></trkpt><trkpt lat="56.8263417" lon="53.1370640"><time>2024-11-03T14:22:49.297</time></trkpt><trkpt lat="56.8263331" lon="53.1369700"><time>2024-11-03T14:22:52.307</time></trkpt><trkpt lat="56.8263127" lon="53.1368886"><time>2024-11-03T14:22:55.303</time></trkpt><trkpt lat="56.8262721" lon="53.1368460"><time>2024-11-03T14:22:58.297</time></trkpt><trkpt lat="56.8262265" lon="53.1368050"><time>2024-11-03T14:23:01.307</time></trkpt><trkpt lat="56.8261834" lon="53.1367404"><time>2024-11-03T14:23:04.303</time></trkpt><trkpt lat="56.8261525" lon="53.1366760"><time>2024-11-03T14:23:07.297</time></trkpt><trkpt lat="56.8260954" lon="53.1366530"><time>2024-11-03T14:23:11.303</time></trkpt><trkpt lat="56.8260571" lon="53.1366060"><time>2024-11-03T14:23:14.303</time></trkpt><trkpt lat="56.8260240" lon="53.1365407"><time>2024-11-03T14:23:17.327</time></trkpt><trkpt lat="56.8260128" lon="53.1365121"><time>2024-11-03T14:23:18.300</time></trkpt><trkpt lat="56.8259693" lon="53.1364530"><time>2024-11-03T14:23:21.300</time></trkpt><trkpt lat="56.8259136" lon="53.1364708"><time>2024-11-03T14:23:24.303</time></trkpt><trkpt lat="56.8258655" lon="53.1365123"><time>2024-11-03T14:23:27.307</time></trkpt><trkpt lat="56.8258165" lon="53.1365666"><time>2024-11-03T14:23:30.303</time></trkpt><trkpt lat="56.8257647" lon="53.1365941"><time>2024-11-03T14:23:33.303</time></trkpt><trkpt lat="56.8257135" lon="53.1366162"><time>2024-11-03T14:23:36.300</time></trkpt><trkpt lat="56.8256670" lon="53.1366429"><time>2024-11-03T14:23:39.303</time></trkpt><trkpt lat="56.8256073" lon="53.1366485"><time>2024-11-03T14:23:43.297</time></trkpt><trkpt lat="56.8255622" lon="53.1366572"><time>2024-11-03T14:23:46.307</time></trkpt><trkpt lat="56.8255098" lon="53.1366670"><time>2024-11-03T14:23:50.303</time></trkpt><trkpt lat="56.8254625" lon="53.1367051"><time>2024-11-03T14:23:54.307</time></trkpt><trkpt lat="56.8254172" lon="53.1367426"><time>2024-11-03T14:23:58.307</time></trkpt><trkpt lat="56.8253781" lon="53.1367959"><time>2024-11-03T14:24:02.297</time></trkpt><trkpt lat="56.8253411" lon="53.1368438"><time>2024-11-03T14:24:05.300</time></trkpt><trkpt lat="56.8252960" lon="53.1368821"><time>2024-11-03T14:24:09.300</time></trkpt><trkpt lat="56.8252645" lon="53.1369503"><time>2024-11-03T14:24:12.303</time></trkpt><trkpt lat="56.8252269" lon="53.1370057"><time>2024-11-03T14:24:15.303</time></trkpt><trkpt lat="56.8251856" lon="53.1370657"><time>2024-11-03T14:24:19.293</time></trkpt><trkpt lat="56.8251423" lon="53.1371110"><time>2024-11-03T14:24:23.287</time></trkpt><trkpt lat="56.8251002" lon="53.1371621"><time>2024-11-03T14:24:27.300</time></trkpt><trkpt lat="56.8250489" lon="53.1371848"><time>2024-11-03T14:24:31.290</time></trkpt><trkpt lat="56.8250025" lon="53.1372417"><time>2024-11-03T14:24:35.290</time></trkpt><trkpt lat="56.8249553" lon="53.1373010"><time>2024-11-03T14:24:39.303</time></trkpt><trkpt lat="56.8249199" lon="53.1373838"><time>2024-11-03T14:24:43.307</time></trkpt><trkpt lat="56.8248828" lon="53.1374632"><time>2024-11-03T14:24:47.290</time></trkpt><trkpt lat="56.8248395" lon="53.1375287"><time>2024-11-03T14:24:51.303</time></trkpt><trkpt lat="56.8247790" lon="53.1375635"><time>2024-11-03T14:24:56.320</time></trkpt><trkpt lat="56.8247608" lon="53.1375719"><time>2024-11-03T14:24:57.297</time></trkpt><trkpt lat="56.8247011" lon="53.1376190"><time>2024-11-03T14:25:00.307</time></trkpt><trkpt lat="56.8246522" lon="53.1376643"><time>2024-11-03T14:25:03.297</time></trkpt><trkpt lat="56.8246094" lon="53.1377352"><time>2024-11-03T14:25:06.307</time></trkpt><trkpt lat="56.8245593" lon="53.1378031"><time>2024-11-03T14:25:09.307</time></trkpt><trkpt lat="56.8245135" lon="53.1378797"><time>2024-11-03T14:25:12.303</time></trkpt><trkpt lat="56.8244671" lon="53.1379545"><time>2024-11-03T14:25:15.297</time></trkpt><trkpt lat="56.8244205" lon="53.1380087"><time>2024-11-03T14:25:18.303</time></trkpt><trkpt lat="56.8243656" lon="53.1380560"><time>2024-11-03T14:25:21.307</time></trkpt><trkpt lat="56.8243200" lon="53.1381187"><time>2024-11-03T14:25:24.287</time></trkpt><trkpt lat="56.8243018" lon="53.1382005"><time>2024-11-03T14:25:28.293</time></trkpt><trkpt lat="56.8243221" lon="53.1382867"><time>2024-11-03T14:25:32.293</time></trkpt><trkpt lat="56.8242996" lon="53.1383727"><time>2024-11-03T14:25:36.300</time></trkpt><trkpt lat="56.8242466" lon="53.1383958"><time>2024-11-03T14:25:41.297</time></trkpt><trkpt lat="56.8242028" lon="53.1384361"><time>2024-11-03T14:25:44.297</time></trkpt><trkpt lat="56.8241624" lon="53.1384855"><time>2024-11-03T14:25:47.307</time></trkpt><trkpt lat="56.8241309" lon="53.1385695"><time>2024-11-03T14:25:51.297</time></trkpt><trkpt lat="56.8241082" lon="53.1386415"><time>2024-11-03T14:25:54.317</time></trkpt><trkpt lat="56.8240998" lon="53.1386591"><time>2024-11-03T14:25:55.307</time></trkpt><trkpt lat="56.8240618" lon="53.1387165"><time>2024-11-03T14:25:58.300</time></trkpt><trkpt lat="56.8240202" lon="53.1387762"><time>2024-11-03T14:26:01.307</time></trkpt><trkpt lat="56.8239802" lon="53.1388374"><time>2024-11-03T14:26:06.290</time></trkpt><trkpt lat="56.8239452" lon="53.1389148"><time>2024-11-03T14:26:09.290</time></trkpt><trkpt lat="56.8239216" lon="53.1389870"><time>2024-11-03T14:26:12.303</time></trkpt><trkpt lat="56.8238863" lon="53.1390552"><time>2024-11-03T14:26:15.290</time></trkpt><trkpt lat="56.8238461" lon="53.1391176"><time>2024-11-03T14:26:20.287</time></trkpt><trkpt lat="56.8237924" lon="53.1391661"><time>2024-11-03T14:26:24.293</time></trkpt><trkpt lat="56.8237367" lon="53.1391913"><time>2024-11-03T14:26:28.310</time></trkpt><trkpt lat="56.8237229" lon="53.1392024"><time>2024-11-03T14:26:29.300</time></trkpt><trkpt lat="56.8236732" lon="53.1392503"><time>2024-11-03T14:26:33.297</time></trkpt><trkpt lat="56.8236369" lon="53.1392986"><time>2024-11-03T14:26:36.303</time></trkpt><trkpt lat="56.8235948" lon="53.1393342"><time>2024-11-03T14:26:39.303</time></trkpt><trkpt lat="56.8235725" lon="53.1394226"><time>2024-11-03T14:26:43.307</time></trkpt><trkpt lat="56.8235238" lon="53.1394295"><time>2024-11-03T14:26:49.300</time></trkpt><trkpt lat="56.8234850" lon="53.1394828"><time>2024-11-03T14:26:55.307</time></trkpt><trkpt lat="56.8234383" lon="53.1394448"><time>2024-11-03T14:26:59.300</time></trkpt><trkpt lat="56.8234207" lon="53.1394356"><time>2024-11-03T14:27:34.453</time></trkpt><trkpt lat="56.8234007" lon="53.1394994"><time>2024-11-03T14:27:42.313</time></trkpt><trkpt lat="56.8233901" lon="53.1395035"><time>2024-11-03T14:27:43.293</time></trkpt><trkpt lat="56.8233455" lon="53.1395538"><time>2024-11-03T14:27:47.297</time></trkpt><trkpt lat="56.8232939" lon="53.1395623"><time>2024-11-03T14:27:50.293</time></trkpt><trkpt lat="56.8232366" lon="53.1395479"><time>2024-11-03T14:27:53.300</time></trkpt><trkpt lat="56.8231938" lon="53.1395159"><time>2024-11-03T14:27:56.307</time></trkpt><trkpt lat="56.8231441" lon="53.1394890"><time>2024-11-03T14:28:00.307</time></trkpt><trkpt lat="56.8230891" lon="53.1394611"><time>2024-11-03T14:28:04.293</time></trkpt><trkpt lat="56.8230417" lon="53.1394253"><time>2024-11-03T14:28:07.297</time></trkpt><trkpt lat="56.8229767" lon="53.1394050"><time>2024-11-03T14:28:10.297</time></trkpt><trkpt lat="56.8229172" lon="53.1393779"><time>2024-11-03T14:28:13.297</time></trkpt><trkpt lat="56.8228666" lon="53.1393601"><time>2024-11-03T14:28:17.293</time></trkpt><trkpt lat="56.8228185" lon="53.1393514"><time>2024-11-03T14:28:20.307</time></trkpt><trkpt lat="56.8227640" lon="53.1393603"><time>2024-11-03T14:28:24.300</time></trkpt><trkpt lat="56.8227164" lon="53.1393733"><time>2024-11-03T14:28:27.307</time></trkpt><trkpt lat="56.8226578" lon="53.1394018"><time>2024-11-03T14:28:30.300</time></trkpt><trkpt lat="56.8226143" lon="53.1394295"><time>2024-11-03T14:28:33.297</time></trkpt><trkpt lat="56.8225589" lon="53.1394432"><time>2024-11-03T14:28:36.297</time></trkpt><trkpt lat="56.8225118" lon="53.1394611"><time>2024-11-03T14:28:40.300</time></trkpt><trkpt lat="56.8224645" lon="53.1394808"><time>2024-11-03T14:28:44.300</time></trkpt><trkpt lat="56.8224097" lon="53.1394625"><time>2024-11-03T14:28:49.297</time></trkpt><trkpt lat="56.8223639" lon="53.1394490"><time>2024-11-03T14:28:53.290</time></trkpt><trkpt lat="56.8223067" lon="53.1394651"><time>2024-11-03T14:28:57.303</time></trkpt><trkpt lat="56.8222652" lon="53.1394338"><time>2024-11-03T14:29:01.297</time></trkpt><trkpt lat="56.8222153" lon="53.1394004"><time>2024-11-03T14:29:06.317</time></trkpt><trkpt lat="56.8222040" lon="53.1393916"><time>2024-11-03T14:29:07.300</time></trkpt><trkpt lat="56.8221597" lon="53.1393369"><time>2024-11-03T14:29:11.300</time></trkpt><trkpt lat="56.8221195" lon="53.1392867"><time>2024-11-03T14:29:15.310</time></trkpt><trkpt lat="56.8220658" lon="53.1392534"><time>2024-11-03T14:29:19.297</time></trkpt><trkpt lat="56.8220196" lon="53.1392078"><time>2024-11-03T14:29:24.297</time></trkpt><trkpt lat="56.8219663" lon="53.1392122"><time>2024-11-03T14:29:28.287</time></trkpt><trkpt lat="56.8219156" lon="53.1392311"><time>2024-11-03T14:29:31.297</time></trkpt><trkpt lat="56.8218733" lon="53.1391949"><time>2024-11-03T14:29:35.290</time></trkpt><trkpt lat="56.8218455" lon="53.1391257"><time>2024-11-03T14:29:40.297</time></trkpt><trkpt lat="56.8218080" lon="53.1390636"><time>2024-11-03T14:29:44.297</time></trkpt><trkpt lat="56.8217582" lon="53.1390312"><time>2024-11-03T14:29:48.300</time></trkpt><trkpt lat="56.8217068" lon="53.1390570"><time>2024-11-03T14:29:52.310</time></trkpt><trkpt lat="56.8216588" lon="53.1390926"><time>2024-11-03T14:29:56.287</time></trkpt><trkpt lat="56.8216183" lon="53.1391486"><time>2024-11-03T14:30:00.303</time></trkpt><trkpt lat="56.8215711" lon="53.1391752"><time>2024-11-03T14:30:06.307</time></trkpt><trkpt lat="56.8215170" lon="53.1392027"><time>2024-11-03T14:30:11.303</time></trkpt><trkpt lat="56.8214746" lon="53.1392596"><time>2024-11-03T14:30:18.290</time></trkpt><trkpt lat="56.8214316" lon="53.1393179"><time>2024-11-03T14:30:23.297</time></trkpt><trkpt lat="56.8213897" lon="53.1393687"><time>2024-11-03T14:30:27.293</time></trkpt><trkpt lat="56.8213699" lon="53.1394485"><time>2024-11-03T14:30:30.297</time></trkpt><trkpt lat="56.8213374" lon="53.1395192"><time>2024-11-03T14:30:33.307</time></trkpt><trkpt lat="56.8213197" lon="53.1395978"><time>2024-11-03T14:30:37.320</time></trkpt><trkpt lat="56.8213175" lon="53.1396196"><time>2024-11-03T14:30:38.293</time></trkpt><trkpt lat="56.8212851" lon="53.1396988"><time>2024-11-03T14:30:42.297</time></trkpt><trkpt lat="56.8212534" lon="53.1397693"><time>2024-11-03T14:30:47.290</time></trkpt><trkpt lat="56.8211968" lon="53.1397738"><time>2024-11-03T14:30:50.290</time></trkpt><trkpt lat="56.8211515" lon="53.1397330"><time>2024-11-03T14:30:54.290</time></trkpt><trkpt lat="56.8210954" lon="53.1397204"><time>2024-11-03T14:30:58.300</time></trkpt><trkpt lat="56.8210620" lon="53.1397824"><time>2024-11-03T14:31:02.307</time></trkpt><trkpt lat="56.8210324" lon="53.1398768"><time>2024-11-03T14:31:06.300</time></trkpt><trkpt lat="56.8209995" lon="53.1399592"><time>2024-11-03T14:31:10.293</time></trkpt><trkpt lat="56.8209567" lon="53.1400054"><time>2024-11-03T14:31:14.300</time></trkpt><trkpt lat="56.8209126" lon="53.1400702"><time>2024-11-03T14:31:18.300</time></trkpt><trkpt lat="56.8208845" lon="53.1401432"><time>2024-11-03T14:31:22.290</time></trkpt><trkpt lat="56.8208337" lon="53.1402001"><time>2024-11-03T14:31:26.293</time></trkpt><trkpt lat="56.8207760" lon="53.1401875"><time>2024-11-03T14:31:29.300</time></trkpt><trkpt lat="56.8207240" lon="53.1401727"><time>2024-11-03T14:31:32.297</time></trkpt><trkpt lat="56.8206774" lon="53.1401992"><time>2024-11-03T14:31:35.307</time></trkpt><trkpt lat="56.8206682" lon="53.1402024"><time>2024-11-03T14:31:36.297</time></trkpt><trkpt lat="56.8206235" lon="53.1401566"><time>2024-11-03T14:31:40.300</time></trkpt><trkpt lat="56.8205831" lon="53.1400933"><time>2024-11-03T14:31:44.303</time></trkpt><trkpt lat="56.8205443" lon="53.1400262"><time>2024-11-03T14:31:48.297</time></trkpt><trkpt lat="56.8205079" lon="53.1399632"><time>2024-11-03T14:31:52.293</time></trkpt><trkpt lat="56.8204646" lon="53.1399055"><time>2024-11-03T14:31:56.293</time></trkpt><trkpt lat="56.8204184" lon="53.1398525"><time>2024-11-03T14:32:01.307</time></trkpt><trkpt lat="56.8203988" lon="53.1399352"><time>2024-11-03T14:32:21.297</time></trkpt><trkpt lat="56.8203930" lon="53.1400304"><time>2024-11-03T14:32:25.307</time></trkpt><trkpt lat="56.8203966" lon="53.1401420"><time>2024-11-03T14:32:33.307</time></trkpt><trkpt lat="56.8203844" lon="53.1402223"><time>2024-11-03T14:32:38.307</time></trkpt><trkpt lat="56.8203691" lon="53.1403125"><time>2024-11-03T14:32:43.307</time></trkpt><trkpt lat="56.8203336" lon="53.1403632"><time>2024-11-03T14:32:47.320</time></trkpt><trkpt lat="56.8203275" lon="53.1403440"><time>2024-11-03T14:32:48.307</time></trkpt><trkpt lat="56.8203483" lon="53.1402507"><time>2024-11-03T14:32:51.320</time></trkpt><trkpt lat="56.8203530" lon="53.1402254"><time>2024-11-03T14:32:52.300</time></trkpt><trkpt lat="56.8203444" lon="53.1401439"><time>2024-11-03T14:32:56.307</time></trkpt><trkpt lat="56.8203471" lon="53.1400588"><time>2024-11-03T14:32:59.310</time></trkpt><trkpt lat="56.8203549" lon="53.1399533"><time>2024-11-03T14:33:03.307</time></trkpt><trkpt lat="56.8203585" lon="53.1398575"><time>2024-11-03T14:33:09.307</time></trkpt><trkpt lat="56.8203923" lon="53.1397906"><time>2024-11-03T14:33:14.307</time></trkpt><trkpt lat="56.8203901" lon="53.1397070"><time>2024-11-03T14:33:23.300</time></trkpt><trkpt lat="56.8204107" lon="53.1396138"><time>2024-11-03T14:33:27.303</time></trkpt><trkpt lat="56.8204183" lon="53.1395192"><time>2024-11-03T14:33:31.297</time></trkpt><trkpt lat="56.8204537" lon="53.1394946"><time>2024-11-03T14:33:35.997</time></trkpt><trkpt lat="56.8204645" lon="53.1395182"><time>2024-11-03T14:33:40.320</time></trkpt><trkpt lat="56.8204672" lon="53.1395170"><time>2024-11-03T14:33:41.290</time></trkpt><trkpt lat="56.8204572" lon="53.1394217"><time>2024-11-03T14:34:00.290</time></trkpt><trkpt lat="56.8204544" lon="53.1393330"><time>2024-11-03T14:34:05.287</time></trkpt><trkpt lat="56.8204616" lon="53.1392381"><time>2024-11-03T14:34:10.297</time></trkpt><trkpt lat="56.8204664" lon="53.1391368"><time>2024-11-03T14:34:14.300</time></trkpt><trkpt lat="56.8204782" lon="53.1390564"><time>2024-11-03T14:34:17.300</time></trkpt><trkpt lat="56.8205038" lon="53.1389739"><time>2024-11-03T14:34:21.293</time></trkpt><trkpt lat="56.8205352" lon="53.1388974"><time>2024-11-03T14:34:25.293</time></trkpt><trkpt lat="56.8205507" lon="53.1388138"><time>2024-11-03T14:34:29.310</time></trkpt><trkpt lat="56.8205512" lon="53.1387185"><time>2024-11-03T14:34:32.307</time></trkpt><trkpt lat="56.8205632" lon="53.1386171"><time>2024-11-03T14:34:35.303</time></trkpt><trkpt lat="56.8205705" lon="53.1385032"><time>2024-11-03T14:34:38.307</time></trkpt><trkpt lat="56.8205644" lon="53.1384005"><time>2024-11-03T14:34:41.310</time></trkpt><trkpt lat="56.8205708" lon="53.1382982"><time>2024-11-03T14:34:44.307</time></trkpt><trkpt lat="56.8205837" lon="53.1382003"><time>2024-11-03T14:34:47.293</time></trkpt><trkpt lat="56.8205929" lon="53.1381059"><time>2024-11-03T14:34:50.307</time></trkpt><trkpt lat="56.8206093" lon="53.1380163"><time>2024-11-03T14:34:54.293</time></trkpt><trkpt lat="56.8206125" lon="53.1379302"><time>2024-11-03T14:34:57.297</time></trkpt><trkpt lat="56.8206154" lon="53.1378443"><time>2024-11-03T14:35:00.307</time></trkpt><trkpt lat="56.8206189" lon="53.1377322"><time>2024-11-03T14:35:04.297</time></trkpt><trkpt lat="56.8206182" lon="53.1376383"><time>2024-11-03T14:35:07.297</time></trkpt><trkpt lat="56.8206140" lon="53.1375478"><time>2024-11-03T14:35:10.307</time></trkpt><trkpt lat="56.8206133" lon="53.1374490"><time>2024-11-03T14:35:14.303</time></trkpt><trkpt lat="56.8206382" lon="53.1373597"><time>2024-11-03T14:35:18.307</time></trkpt><trkpt lat="56.8206466" lon="53.1372713"><time>2024-11-03T14:35:21.303</time></trkpt><trkpt lat="56.8206409" lon="53.1371775"><time>2024-11-03T14:35:24.307</time></trkpt><trkpt lat="56.8206366" lon="53.1370869"><time>2024-11-03T14:35:27.300</time></trkpt><trkpt lat="56.8206261" lon="53.1369996"><time>2024-11-03T14:35:29.300</time></trkpt><trkpt lat="56.8206157" lon="53.1369130"><time>2024-11-03T14:35:31.303</time></trkpt><trkpt lat="56.8206347" lon="53.1368258"><time>2024-11-03T14:35:34.297</time></trkpt><trkpt lat="56.8206563" lon="53.1367405"><time>2024-11-03T14:35:37.303</time></trkpt><trkpt lat="56.8206690" lon="53.1366580"><time>2024-11-03T14:35:40.297</time></trkpt><trkpt lat="56.8206846" lon="53.1365586"><time>2024-11-03T14:35:44.303</time></trkpt><trkpt lat="56.8207043" lon="53.1364817"><time>2024-11-03T14:35:47.317</time></trkpt><trkpt lat="56.8207070" lon="53.1364533"><time>2024-11-03T14:35:48.300</time></trkpt><trkpt lat="56.8207320" lon="53.1363769"><time>2024-11-03T14:35:51.297</time></trkpt><trkpt lat="56.8207625" lon="53.1363027"><time>2024-11-03T14:35:54.300</time></trkpt><trkpt lat="56.8208024" lon="53.1362367"><time>2024-11-03T14:35:57.297</time></trkpt><trkpt lat="56.8208261" lon="53.1361420"><time>2024-11-03T14:36:01.300</time></trkpt><trkpt lat="56.8208378" lon="53.1360615"><time>2024-11-03T14:36:03.303</time></trkpt><trkpt lat="56.8208685" lon="53.1359845"><time>2024-11-03T14:36:06.303</time></trkpt><trkpt lat="56.8208998" lon="53.1359101"><time>2024-11-03T14:36:09.307</time></trkpt><trkpt lat="56.8209303" lon="53.1358345"><time>2024-11-03T14:36:13.313</time></trkpt><trkpt lat="56.8209458" lon="53.1357504"><time>2024-11-03T14:36:16.303</time></trkpt><trkpt lat="56.8209775" lon="53.1356868"><time>2024-11-03T14:36:19.307</time></trkpt><trkpt lat="56.8209874" lon="53.1355965"><time>2024-11-03T14:36:22.303</time></trkpt><trkpt lat="56.8210239" lon="53.1355372"><time>2024-11-03T14:36:25.297</time></trkpt><trkpt lat="56.8210475" lon="53.1354476"><time>2024-11-03T14:36:28.300</time></trkpt><trkpt lat="56.8210810" lon="53.1353930"><time>2024-11-03T14:36:31.307</time></trkpt><trkpt lat="56.8211274" lon="53.1354029"><time>2024-11-03T14:36:34.300</time></trkpt><trkpt lat="56.8211617" lon="53.1353206"><time>2024-11-03T14:36:37.303</time></trkpt><trkpt lat="56.8211910" lon="53.1352318"><time>2024-11-03T14:36:40.293</time></trkpt><trkpt lat="56.8212296" lon="53.1351853"><time>2024-11-03T14:36:43.307</time></trkpt><trkpt lat="56.8212837" lon="53.1351226"><time>2024-11-03T14:36:47.303</time></trkpt><trkpt lat="56.8213173" lon="53.1350528"><time>2024-11-03T14:36:50.313</time></trkpt><trkpt lat="56.8213320" lon="53.1350383"><time>2024-11-03T14:36:51.303</time></trkpt><trkpt lat="56.8213755" lon="53.1350032"><time>2024-11-03T14:36:54.297</time></trkpt><trkpt lat="56.8214207" lon="53.1349602"><time>2024-11-03T14:36:57.287</time></trkpt><trkpt lat="56.8214772" lon="53.1349251"><time>2024-11-03T14:37:01.290</time></trkpt><trkpt lat="56.8215255" lon="53.1349108"><time>2024-11-03T14:37:04.303</time></trkpt><trkpt lat="56.8215774" lon="53.1348706"><time>2024-11-03T14:37:08.297</time></trkpt><trkpt lat="56.8216235" lon="53.1348694"><time>2024-11-03T14:37:11.303</time></trkpt><trkpt lat="56.8216692" lon="53.1348592"><time>2024-11-03T14:37:15.313</time></trkpt><trkpt lat="56.8217158" lon="53.1348370"><time>2024-11-03T14:37:19.307</time></trkpt><trkpt lat="56.8217715" lon="53.1347982"><time>2024-11-03T14:37:23.317</time></trkpt><trkpt lat="56.8217877" lon="53.1347911"><time>2024-11-03T14:37:24.307</time></trkpt><trkpt lat="56.8218336" lon="53.1347769"><time>2024-11-03T14:37:27.303</time></trkpt><trkpt lat="56.8218874" lon="53.1347544"><time>2024-11-03T14:37:32.303</time></trkpt><trkpt lat="56.8219367" lon="53.1347313"><time>2024-11-03T14:37:36.300</time></trkpt><trkpt lat="56.8219534" lon="53.1346525"><time>2024-11-03T14:37:53.293</time></trkpt><trkpt lat="56.8220008" lon="53.1346178"><time>2024-11-03T14:38:00.293</time></trkpt><trkpt lat="56.8220491" lon="53.1345952"><time>2024-11-03T14:38:06.290</time></trkpt><trkpt lat="56.8220841" lon="53.1345324"><time>2024-11-03T14:38:09.293</time></trkpt><trkpt lat="56.8221179" lon="53.1345863"><time>2024-11-03T14:38:15.297</time></trkpt><trkpt lat="56.8221641" lon="53.1346449"><time>2024-11-03T14:38:18.297</time></trkpt><trkpt lat="56.8222230" lon="53.1346757"><time>2024-11-03T14:38:21.293</time></trkpt><trkpt lat="56.8222602" lon="53.1346195"><time>2024-11-03T14:38:25.300</time></trkpt><trkpt lat="56.8222635" lon="53.1346318"><time>2024-11-03T14:38:48.703</time></trkpt><trkpt lat="56.8223141" lon="53.1345947"><time>2024-11-03T14:38:59.320</time></trkpt><trkpt lat="56.8223244" lon="53.1345897"><time>2024-11-03T14:39:00.293</time></trkpt><trkpt lat="56.8223744" lon="53.1345799"><time>2024-11-03T14:39:06.293</time></trkpt><trkpt lat="56.8224189" lon="53.1345339"><time>2024-11-03T14:39:11.373</time></trkpt><trkpt lat="56.8224664" lon="53.1345127"><time>2024-11-03T14:39:15.307</time></trkpt><trkpt lat="56.8225122" lon="53.1344782"><time>2024-11-03T14:39:19.310</time></trkpt><trkpt lat="56.8225666" lon="53.1344385"><time>2024-11-03T14:39:29.310</time></trkpt><trkpt lat="56.8226349" lon="53.1344279"><time>2024-11-03T14:39:31.297</time></trkpt><trkpt lat="56.8227053" lon="53.1344098"><time>2024-11-03T14:39:34.297</time></trkpt><trkpt lat="56.8227571" lon="53.1343655"><time>2024-11-03T14:39:37.303</time></trkpt><trkpt lat="56.8228059" lon="53.1343659"><time>2024-11-03T14:39:39.297</time></trkpt><trkpt lat="56.8228535" lon="53.1343389"><time>2024-11-03T14:39:42.307</time></trkpt><trkpt lat="56.8229080" lon="53.1343295"><time>2024-11-03T14:39:46.303</time></trkpt><trkpt lat="56.8229709" lon="53.1343129"><time>2024-11-03T14:39:50.310</time></trkpt><trkpt lat="56.8230203" lon="53.1343181"><time>2024-11-03T14:39:53.310</time></trkpt><trkpt lat="56.8230781" lon="53.1342946"><time>2024-11-03T14:39:57.300</time></trkpt><trkpt lat="56.8231330" lon="53.1342228"><time>2024-11-03T14:40:17.293</time></trkpt><trkpt lat="56.8231887" lon="53.1341532"><time>2024-11-03T14:40:19.297</time></trkpt><trkpt lat="56.8232158" lon="53.1340399"><time>2024-11-03T14:40:21.300</time></trkpt><trkpt lat="56.8232713" lon="53.1340095"><time>2024-11-03T14:40:24.300</time></trkpt><trkpt lat="56.8233095" lon="53.1339650"><time>2024-11-03T14:40:26.307</time></trkpt><trkpt lat="56.8233417" lon="53.1338798"><time>2024-11-03T14:40:28.307</time></trkpt><trkpt lat="56.8233642" lon="53.1337850"><time>2024-11-03T14:40:30.303</time></trkpt><trkpt lat="56.8233826" lon="53.1336723"><time>2024-11-03T14:40:32.310</time></trkpt><trkpt lat="56.8233843" lon="53.1335897"><time>2024-11-03T14:40:34.307</time></trkpt><trkpt lat="56.8233759" lon="53.1335065"><time>2024-11-03T14:40:36.310</time></trkpt><trkpt lat="56.8233603" lon="53.1334163"><time>2024-11-03T14:40:39.317</time></trkpt><trkpt lat="56.8233442" lon="53.1333379"><time>2024-11-03T14:40:42.307</time></trkpt><trkpt lat="56.8233325" lon="53.1332560"><time>2024-11-03T14:40:45.307</time></trkpt><trkpt lat="56.8233190" lon="53.1331599"><time>2024-11-03T14:40:49.313</time></trkpt><trkpt lat="56.8232974" lon="53.1330719"><time>2024-11-03T14:40:52.313</time></trkpt><trkpt lat="56.8232764" lon="53.1329895"><time>2024-11-03T14:40:55.307</time></trkpt><trkpt lat="56.8232709" lon="53.1329051"><time>2024-11-03T14:40:58.310</time></trkpt><trkpt lat="56.8233079" lon="53.1328394"><time>2024-11-03T14:41:01.303</time></trkpt><trkpt lat="56.8233604" lon="53.1327978"><time>2024-11-03T14:41:04.313</time></trkpt><trkpt lat="56.8234091" lon="53.1327708"><time>2024-11-03T14:41:07.310</time></trkpt><trkpt lat="56.8234529" lon="53.1326875"><time>2024-11-03T14:41:11.327</time></trkpt><trkpt lat="56.8234597" lon="53.1326715"><time>2024-11-03T14:41:12.310</time></trkpt><trkpt lat="56.8234960" lon="53.1326109"><time>2024-11-03T14:41:16.317</time></trkpt><trkpt lat="56.8235466" lon="53.1325599"><time>2024-11-03T14:41:20.310</time></trkpt><trkpt lat="56.8236057" lon="53.1325821"><time>2024-11-03T14:41:23.313</time></trkpt><trkpt lat="56.8236529" lon="53.1325604"><time>2024-11-03T14:41:26.310</time></trkpt><trkpt lat="56.8237069" lon="53.1325601"><time>2024-11-03T14:41:29.310</time></trkpt><trkpt lat="56.8237635" lon="53.1325789"><time>2024-11-03T14:41:32.313</time></trkpt><trkpt lat="56.8238199" lon="53.1325803"><time>2024-11-03T14:41:35.307</time></trkpt><trkpt lat="56.8238744" lon="53.1325859"><time>2024-11-03T14:41:38.313</time></trkpt><trkpt lat="56.8239279" lon="53.1326086"><time>2024-11-03T14:41:41.307</time></trkpt><trkpt lat="56.8239839" lon="53.1326375"><time>2024-11-03T14:41:44.307</time></trkpt><trkpt lat="56.8240391" lon="53.1326532"><time>2024-11-03T14:41:47.307</time></trkpt><trkpt lat="56.8240892" lon="53.1326601"><time>2024-11-03T14:41:50.307</time></trkpt><trkpt lat="56.8241373" lon="53.1326634"><time>2024-11-03T14:41:53.293</time></trkpt><trkpt lat="56.8241783" lon="53.1326219"><time>2024-11-03T14:41:56.307</time></trkpt><trkpt lat="56.8242209" lon="53.1325956"><time>2024-11-03T14:41:59.300</time></trkpt><trkpt lat="56.8242733" lon="53.1325602"><time>2024-11-03T14:42:03.303</time></trkpt><trkpt lat="56.8243224" lon="53.1325124"><time>2024-11-03T14:42:07.293</time></trkpt><trkpt lat="56.8243796" lon="53.1324871"><time>2024-11-03T14:42:11.317</time></trkpt><trkpt lat="56.8243948" lon="53.1324927"><time>2024-11-03T14:42:12.310</time></trkpt><trkpt lat="56.8244522" lon="53.1325247"><time>2024-11-03T14:42:16.303</time></trkpt><trkpt lat="56.8244993" lon="53.1324493"><time>2024-11-03T14:42:19.307</time></trkpt><trkpt lat="56.8245566" lon="53.1324349"><time>2024-11-03T14:42:24.307</time></trkpt><trkpt lat="56.8245986" lon="53.1324020"><time>2024-11-03T14:42:27.300</time></trkpt><trkpt lat="56.8246460" lon="53.1323562"><time>2024-11-03T14:42:30.300</time></trkpt><trkpt lat="56.8246935" lon="53.1323232"><time>2024-11-03T14:42:33.307</time></trkpt><trkpt lat="56.8247460" lon="53.1322969"><time>2024-11-03T14:42:37.310</time></trkpt><trkpt lat="56.8247960" lon="53.1322710"><time>2024-11-03T14:42:41.320</time></trkpt><trkpt lat="56.8248085" lon="53.1322590"><time>2024-11-03T14:42:42.307</time></trkpt><trkpt lat="56.8248629" lon="53.1322463"><time>2024-11-03T14:42:46.313</time></trkpt><trkpt lat="56.8249159" lon="53.1321991"><time>2024-11-03T14:42:50.313</time></trkpt><trkpt lat="56.8249698" lon="53.1321746"><time>2024-11-03T14:42:54.317</time></trkpt><trkpt lat="56.8250228" lon="53.1321818"><time>2024-11-03T14:42:58.310</time></trkpt><trkpt lat="56.8250642" lon="53.1322256"><time>2024-11-03T14:43:02.307</time></trkpt><trkpt lat="56.8251192" lon="53.1322228"><time>2024-11-03T14:43:06.297</time></trkpt><trkpt lat="56.8251692" lon="53.1322056"><time>2024-11-03T14:43:09.297</time></trkpt><trkpt lat="56.8252152" lon="53.1321857"><time>2024-11-03T14:43:12.297</time></trkpt><trkpt lat="56.8252135" lon="53.1321995"><time>2024-11-03T14:43:16.270</time></trkpt><trkpt lat="56.8252693" lon="53.1321495"><time>2024-11-03T14:43:44.313</time></trkpt><trkpt lat="56.8252809" lon="53.1321394"><time>2024-11-03T14:43:45.297</time></trkpt><trkpt lat="56.8253305" lon="53.1321339"><time>2024-11-03T14:43:50.290</time></trkpt><trkpt lat="56.8253695" lon="53.1321772"><time>2024-11-03T14:43:56.300</time></trkpt><trkpt lat="56.8254253" lon="53.1321660"><time>2024-11-03T14:43:59.297</time></trkpt><trkpt lat="56.8254747" lon="53.1321719"><time>2024-11-03T14:44:02.297</time></trkpt><trkpt lat="56.8255263" lon="53.1321990"><time>2024-11-03T14:44:05.297</time></trkpt><trkpt lat="56.8255719" lon="53.1322274"><time>2024-11-03T14:44:08.297</time></trkpt><trkpt lat="56.8255387" lon="53.1322998"><time>2024-11-03T14:44:17.307</time></trkpt><trkpt lat="56.8255142" lon="53.1323838"><time>2024-11-03T14:44:21.307</time></trkpt><trkpt lat="56.8255261" lon="53.1324705"><time>2024-11-03T14:44:24.307</time></trkpt><trkpt lat="56.8255348" lon="53.1325558"><time>2024-11-03T14:44:27.310</time></trkpt><trkpt lat="56.8255427" lon="53.1326420"><time>2024-11-03T14:44:30.310</time></trkpt><trkpt lat="56.8255416" lon="53.1327437"><time>2024-11-03T14:44:33.317</time></trkpt><trkpt lat="56.8255458" lon="53.1328354"><time>2024-11-03T14:44:36.317</time></trkpt><trkpt lat="56.8255535" lon="53.1329185"><time>2024-11-03T14:44:39.317</time></trkpt><trkpt lat="56.8255548" lon="53.1330095"><time>2024-11-03T14:44:42.310</time></trkpt><trkpt lat="56.8255565" lon="53.1331037"><time>2024-11-03T14:44:45.313</time></trkpt><trkpt lat="56.8255578" lon="53.1332054"><time>2024-11-03T14:44:48.310</time></trkpt><trkpt lat="56.8255568" lon="53.1333016"><time>2024-11-03T14:44:51.307</time></trkpt><trkpt lat="56.8255572" lon="53.1333932"><time>2024-11-03T14:44:54.313</time></trkpt><trkpt lat="56.8255531" lon="53.1334847"><time>2024-11-03T14:44:57.313</time></trkpt><trkpt lat="56.8255532" lon="53.1335738"><time>2024-11-03T14:45:00.307</time></trkpt><trkpt lat="56.8255580" lon="53.1336589"><time>2024-11-03T14:45:03.313</time></trkpt><trkpt lat="56.8255685" lon="53.1337435"><time>2024-11-03T14:45:06.310</time></trkpt><trkpt lat="56.8255711" lon="53.1338277"><time>2024-11-03T14:45:09.307</time></trkpt><trkpt lat="56.8255790" lon="53.1339200"><time>2024-11-03T14:45:12.310</time></trkpt><trkpt lat="56.8255820" lon="53.1340103"><time>2024-11-03T14:45:15.313</time></trkpt><trkpt lat="56.8255869" lon="53.1341074"><time>2024-11-03T14:45:18.307</time></trkpt><trkpt lat="56.8255924" lon="53.1341936"><time>2024-11-03T14:45:21.317</time></trkpt><trkpt lat="56.8256003" lon="53.1342889"><time>2024-11-03T14:45:24.320</time></trkpt><trkpt lat="56.8256018" lon="53.1343847"><time>2024-11-03T14:45:27.307</time></trkpt><trkpt lat="56.8256259" lon="53.1344665"><time>2024-11-03T14:45:30.307</time></trkpt><trkpt lat="56.8256690" lon="53.1345074"><time>2024-11-03T14:45:33.317</time></trkpt><trkpt lat="56.8257234" lon="53.1345438"><time>2024-11-03T14:45:37.320</time></trkpt><trkpt lat="56.8257684" lon="53.1345549"><time>2024-11-03T14:45:40.310</time></trkpt><trkpt lat="56.8258163" lon="53.1345521"><time>2024-11-03T14:45:43.313</time></trkpt><trkpt lat="56.8258651" lon="53.1345410"><time>2024-11-03T14:45:46.313</time></trkpt><trkpt lat="56.8259147" lon="53.1345409"><time>2024-11-03T14:45:49.313</time></trkpt><trkpt lat="56.8259654" lon="53.1345270"><time>2024-11-03T14:45:52.313</time></trkpt><trkpt lat="56.8260120" lon="53.1345181"><time>2024-11-03T14:45:55.317</time></trkpt><trkpt lat="56.8260616" lon="53.1345052"><time>2024-11-03T14:45:58.307</time></trkpt><trkpt lat="56.8261085" lon="53.1344995"><time>2024-11-03T14:46:01.313</time></trkpt><trkpt lat="56.8261563" lon="53.1344975"><time>2024-11-03T14:46:04.317</time></trkpt><trkpt lat="56.8262042" lon="53.1345045"><time>2024-11-03T14:46:07.313</time></trkpt><trkpt lat="56.8262521" lon="53.1345107"><time>2024-11-03T14:46:10.307</time></trkpt><trkpt lat="56.8263010" lon="53.1345034"><time>2024-11-03T14:46:13.313</time></trkpt><trkpt lat="56.8263502" lon="53.1344889"><time>2024-11-03T14:46:16.333</time></trkpt><trkpt lat="56.8263677" lon="53.1344868"><time>2024-11-03T14:46:17.317</time></trkpt><trkpt lat="56.8264197" lon="53.1344848"><time>2024-11-03T14:46:20.310</time></trkpt><trkpt lat="56.8264656" lon="53.1344689"><time>2024-11-03T14:46:23.313</time></trkpt><trkpt lat="56.8265126" lon="53.1344480"><time>2024-11-03T14:46:26.300</time></trkpt><trkpt lat="56.8265594" lon="53.1344344"><time>2024-11-03T14:46:29.307</time></trkpt><trkpt lat="56.8266067" lon="53.1344156"><time>2024-11-03T14:46:32.313</time></trkpt><trkpt lat="56.8266622" lon="53.1343985"><time>2024-11-03T14:46:35.317</time></trkpt><trkpt lat="56.8267183" lon="53.1343809"><time>2024-11-03T14:46:38.307</time></trkpt><trkpt lat="56.8267723" lon="53.1343709"><time>2024-11-03T14:46:41.313</time></trkpt><trkpt lat="56.8268276" lon="53.1343625"><time>2024-11-03T14:46:44.310</time></trkpt><trkpt lat="56.8268816" lon="53.1343548"><time>2024-11-03T14:46:47.310</time></trkpt><trkpt lat="56.8269383" lon="53.1343526"><time>2024-11-03T14:46:50.310</time></trkpt><trkpt lat="56.8269859" lon="53.1343450"><time>2024-11-03T14:46:53.317</time></trkpt><trkpt lat="56.8270341" lon="53.1343411"><time>2024-11-03T14:46:56.307</time></trkpt><trkpt lat="56.8270852" lon="53.1343350"><time>2024-11-03T14:46:59.317</time></trkpt><trkpt lat="56.8271385" lon="53.1343212"><time>2024-11-03T14:47:02.317</time></trkpt><trkpt lat="56.8271908" lon="53.1343112"><time>2024-11-03T14:47:05.310</time></trkpt><trkpt lat="56.8272425" lon="53.1343100"><time>2024-11-03T14:47:08.313</time></trkpt><trkpt lat="56.8272891" lon="53.1342974"><time>2024-11-03T14:47:11.310</time></trkpt><trkpt lat="56.8273306" lon="53.1342651"><time>2024-11-03T14:47:14.337</time></trkpt><trkpt lat="56.8273918" lon="53.1342733"><time>2024-11-03T14:47:18.300</time></trkpt><trkpt lat="56.8274471" lon="53.1342698"><time>2024-11-03T14:47:22.300</time></trkpt><trkpt lat="56.8275050" lon="53.1342616"><time>2024-11-03T14:47:26.297</time></trkpt><trkpt lat="56.8275504" lon="53.1342612"><time>2024-11-03T14:47:29.293</time></trkpt><trkpt lat="56.8276057" lon="53.1342413"><time>2024-11-03T14:47:33.290</time></trkpt><trkpt lat="56.8276579" lon="53.1342463"><time>2024-11-03T14:47:37.297</time></trkpt><trkpt lat="56.8276723" lon="53.1343246"><time>2024-11-03T14:47:43.307</time></trkpt><trkpt lat="56.8276893" lon="53.1344160"><time>2024-11-03T14:47:47.307</time></trkpt><trkpt lat="56.8277100" lon="53.1344975"><time>2024-11-03T14:47:50.313</time></trkpt><trkpt lat="56.8277281" lon="53.1345787"><time>2024-11-03T14:47:53.307</time></trkpt><trkpt lat="56.8277547" lon="53.1346491"><time>2024-11-03T14:47:56.300</time></trkpt><trkpt lat="56.8277665" lon="53.1347312"><time>2024-11-03T14:47:59.333</time></trkpt><trkpt lat="56.8277676" lon="53.1347596"><time>2024-11-03T14:48:00.310</time></trkpt><trkpt lat="56.8277832" lon="53.1348508"><time>2024-11-03T14:48:04.317</time></trkpt><trkpt lat="56.8278010" lon="53.1349331"><time>2024-11-03T14:48:07.353</time></trkpt><trkpt lat="56.8278186" lon="53.1350391"><time>2024-11-03T14:48:10.317</time></trkpt><trkpt lat="56.8278402" lon="53.1351410"><time>2024-11-03T14:48:14.317</time></trkpt><trkpt lat="56.8278660" lon="53.1352331"><time>2024-11-03T14:48:18.307</time></trkpt><trkpt lat="56.8278762" lon="53.1353403"><time>2024-11-03T14:48:22.307</time></trkpt><trkpt lat="56.8278855" lon="53.1354423"><time>2024-11-03T14:48:26.307</time></trkpt><trkpt lat="56.8278958" lon="53.1355436"><time>2024-11-03T14:48:30.317</time></trkpt><trkpt lat="56.8278989" lon="53.1355772"><time>2024-11-03T14:48:31.303</time></trkpt><trkpt lat="56.8279093" lon="53.1356811"><time>2024-11-03T14:48:35.297</time></trkpt><trkpt lat="56.8279176" lon="53.1357655"><time>2024-11-03T14:48:39.300</time></trkpt><trkpt lat="56.8279252" lon="53.1358553"><time>2024-11-03T14:48:43.300</time></trkpt><trkpt lat="56.8279364" lon="53.1359424"><time>2024-11-03T14:48:47.307</time></trkpt><trkpt lat="56.8279509" lon="53.1360350"><time>2024-11-03T14:48:51.307</time></trkpt><trkpt lat="56.8279417" lon="53.1361330"><time>2024-11-03T14:48:55.300</time></trkpt><trkpt lat="56.8279229" lon="53.1362353"><time>2024-11-03T14:48:59.307</time></trkpt><trkpt lat="56.8279096" lon="53.1363194"><time>2024-11-03T14:49:03.317</time></trkpt><trkpt lat="56.8278568" lon="53.1363450"><time>2024-11-03T14:49:07.293</time></trkpt><trkpt lat="56.8278457" lon="53.1363775"><time>2024-11-03T14:49:21.607</time></trkpt><trkpt lat="56.8279006" lon="53.1363048"><time>2024-11-03T14:49:30.317</time></trkpt><trkpt lat="56.8279056" lon="53.1363008"><time>2024-11-03T14:49:31.297</time></trkpt><trkpt lat="56.8279552" lon="53.1363089"><time>2024-11-03T14:49:37.307</time></trkpt><trkpt lat="56.8279879" lon="53.1363873"><time>2024-11-03T14:49:41.307</time></trkpt><trkpt lat="56.8280327" lon="53.1364551"><time>2024-11-03T14:49:45.327</time></trkpt><trkpt lat="56.8280731" lon="53.1364932"><time>2024-11-03T14:49:50.313</time></trkpt><trkpt lat="56.8281254" lon="53.1365033"><time>2024-11-03T14:49:54.307</time></trkpt><trkpt lat="56.8281736" lon="53.1365377"><time>2024-11-03T14:49:58.313</time></trkpt><trkpt lat="56.8282219" lon="53.1365517"><time>2024-11-03T14:50:02.313</time></trkpt><trkpt lat="56.8282691" lon="53.1365429"><time>2024-11-03T14:50:06.307</time></trkpt><trkpt lat="56.8283165" lon="53.1365405"><time>2024-11-03T14:50:09.317</time></trkpt><trkpt lat="56.8283562" lon="53.1365796"><time>2024-11-03T14:50:12.307</time></trkpt><trkpt lat="56.8284085" lon="53.1365992"><time>2024-11-03T14:50:15.310</time></trkpt><trkpt lat="56.8284625" lon="53.1366335"><time>2024-11-03T14:50:18.317</time></trkpt><trkpt lat="56.8285175" lon="53.1366719"><time>2024-11-03T14:50:21.317</time></trkpt><trkpt lat="56.8285609" lon="53.1367307"><time>2024-11-03T14:50:24.310</time></trkpt><trkpt lat="56.8286106" lon="53.1367389"><time>2024-11-03T14:50:27.317</time></trkpt><trkpt lat="56.8286699" lon="53.1367449"><time>2024-11-03T14:50:30.310</time></trkpt><trkpt lat="56.8287310" lon="53.1367507"><time>2024-11-03T14:50:33.317</time></trkpt><trkpt lat="56.8287927" lon="53.1367576"><time>2024-11-03T14:50:36.307</time></trkpt><trkpt lat="56.8288462" lon="53.1367533"><time>2024-11-03T14:50:39.317</time></trkpt><trkpt lat="56.8289024" lon="53.1367480"><time>2024-11-03T14:50:42.313</time></trkpt><trkpt lat="56.8289578" lon="53.1367427"><time>2024-11-03T14:50:45.313</time></trkpt><trkpt lat="56.8290149" lon="53.1367229"><time>2024-11-03T14:50:48.313</time></trkpt><trkpt lat="56.8290733" lon="53.1367137"><time>2024-11-03T14:50:51.317</time></trkpt><trkpt lat="56.8291330" lon="53.1367054"><time>2024-11-03T14:50:54.313</time></trkpt><trkpt lat="56.8291947" lon="53.1367060"><time>2024-11-03T14:50:57.317</time></trkpt><trkpt lat="56.8292566" lon="53.1366845"><time>2024-11-03T14:51:00.317</time></trkpt><trkpt lat="56.8293192" lon="53.1366699"><time>2024-11-03T14:51:03.317</time></trkpt><trkpt lat="56.8293788" lon="53.1366655"><time>2024-11-03T14:51:06.313</time></trkpt><trkpt lat="56.8294291" lon="53.1366571"><time>2024-11-03T14:51:09.313</time></trkpt><trkpt lat="56.8294745" lon="53.1366646"><time>2024-11-03T14:51:12.320</time></trkpt><trkpt lat="56.8295277" lon="53.1366565"><time>2024-11-03T14:51:15.310</time></trkpt><trkpt lat="56.8295787" lon="53.1366368"><time>2024-11-03T14:51:18.317</time></trkpt><trkpt lat="56.8296279" lon="53.1366261"><time>2024-11-03T14:51:21.310</time></trkpt><trkpt lat="56.8296810" lon="53.1366188"><time>2024-11-03T14:51:24.310</time></trkpt><trkpt lat="56.8297386" lon="53.1366141"><time>2024-11-03T14:51:27.310</time></trkpt><trkpt lat="56.8297899" lon="53.1366031"><time>2024-11-03T14:51:30.310</time></trkpt><trkpt lat="56.8298395" lon="53.1365848"><time>2024-11-03T14:51:33.323</time></trkpt><trkpt lat="56.8298561" lon="53.1365830"><time>2024-11-03T14:51:34.313</time></trkpt><trkpt lat="56.8299040" lon="53.1365894"><time>2024-11-03T14:51:37.317</time></trkpt><trkpt lat="56.8299513" lon="53.1366590"><time>2024-11-03T14:51:42.310</time></trkpt><trkpt lat="56.8299870" lon="53.1367248"><time>2024-11-03T14:51:59.317</time></trkpt><trkpt lat="56.8300328" lon="53.1367830"><time>2024-11-03T14:52:03.317</time></trkpt><trkpt lat="56.8300681" lon="53.1368408"><time>2024-11-03T14:52:06.310</time></trkpt><trkpt lat="56.8300996" lon="53.1369337"><time>2024-11-03T14:52:10.313</time></trkpt><trkpt lat="56.8301285" lon="53.1370019"><time>2024-11-03T14:52:13.310</time></trkpt><trkpt lat="56.8301406" lon="53.1370910"><time>2024-11-03T14:52:16.317</time></trkpt><trkpt lat="56.8301469" lon="53.1371728"><time>2024-11-03T14:52:19.310</time></trkpt><trkpt lat="56.8301562" lon="53.1372614"><time>2024-11-03T14:52:22.297</time></trkpt><trkpt lat="56.8301584" lon="53.1373440"><time>2024-11-03T14:52:25.317</time></trkpt><trkpt lat="56.8301583" lon="53.1374297"><time>2024-11-03T14:52:28.317</time></trkpt><trkpt lat="56.8301648" lon="53.1375217"><time>2024-11-03T14:52:31.307</time></trkpt><trkpt lat="56.8301723" lon="53.1376146"><time>2024-11-03T14:52:34.313</time></trkpt><trkpt lat="56.8301821" lon="53.1377057"><time>2024-11-03T14:52:37.313</time></trkpt><trkpt lat="56.8301924" lon="53.1377861"><time>2024-11-03T14:52:40.317</time></trkpt><trkpt lat="56.8302031" lon="53.1378738"><time>2024-11-03T14:52:43.313</time></trkpt><trkpt lat="56.8302167" lon="53.1379653"><time>2024-11-03T14:52:46.317</time></trkpt><trkpt lat="56.8302541" lon="53.1380342"><time>2024-11-03T14:52:49.310</time></trkpt><trkpt lat="56.8302948" lon="53.1380793"><time>2024-11-03T14:52:52.317</time></trkpt><trkpt lat="56.8303397" lon="53.1381314"><time>2024-11-03T14:52:56.317</time></trkpt><trkpt lat="56.8303408" lon="53.1381766"><time>2024-11-03T14:52:57.300</time></trkpt><trkpt lat="56.8303607" lon="53.1382575"><time>2024-11-03T14:53:00.303</time></trkpt><trkpt lat="56.8303762" lon="53.1383363"><time>2024-11-03T14:53:03.310</time></trkpt><trkpt lat="56.8303770" lon="53.1384382"><time>2024-11-03T14:53:07.297</time></trkpt><trkpt lat="56.8303771" lon="53.1385208"><time>2024-11-03T14:53:10.317</time></trkpt><trkpt lat="56.8304247" lon="53.1385552"><time>2024-11-03T14:53:13.307</time></trkpt><trkpt lat="56.8304817" lon="53.1385541"><time>2024-11-03T14:53:17.293</time></trkpt><trkpt lat="56.8305275" lon="53.1385469"><time>2024-11-03T14:53:20.323</time></trkpt><trkpt lat="56.8305777" lon="53.1385466"><time>2024-11-03T14:53:23.300</time></trkpt><trkpt lat="56.8306265" lon="53.1385277"><time>2024-11-03T14:53:26.293</time></trkpt><trkpt lat="56.8306837" lon="53.1385383"><time>2024-11-03T14:53:29.320</time></trkpt><trkpt lat="56.8307029" lon="53.1385475"><time>2024-11-03T14:53:30.307</time></trkpt><trkpt lat="56.8307510" lon="53.1385553"><time>2024-11-03T14:53:33.310</time></trkpt><trkpt lat="56.8307969" lon="53.1385721"><time>2024-11-03T14:53:36.307</time></trkpt><trkpt lat="56.8308476" lon="53.1385960"><time>2024-11-03T14:53:39.310</time></trkpt><trkpt lat="56.8308995" lon="53.1386435"><time>2024-11-03T14:53:43.310</time></trkpt><trkpt lat="56.8309126" lon="53.1387400"><time>2024-11-03T14:53:47.313</time></trkpt><trkpt lat="56.8309244" lon="53.1388337"><time>2024-11-03T14:53:51.317</time></trkpt><trkpt lat="56.8309242" lon="53.1389279"><time>2024-11-03T14:53:55.313</time></trkpt><trkpt lat="56.8309245" lon="53.1390218"><time>2024-11-03T14:53:59.317</time></trkpt><trkpt lat="56.8309334" lon="53.1390437"><time>2024-11-03T14:54:10.197</time></trkpt><trkpt lat="56.8309550" lon="53.1389580"><time>2024-11-03T14:54:27.320</time></trkpt><trkpt lat="56.8309485" lon="53.1389250"><time>2024-11-03T14:54:28.300</time></trkpt><trkpt lat="56.8309136" lon="53.1388418"><time>2024-11-03T14:54:32.300</time></trkpt><trkpt lat="56.8308968" lon="53.1387373"><time>2024-11-03T14:54:36.307</time></trkpt><trkpt lat="56.8309070" lon="53.1386535"><time>2024-11-03T14:54:39.297</time></trkpt><trkpt lat="56.8308996" lon="53.1385593"><time>2024-11-03T14:54:43.303</time></trkpt><trkpt lat="56.8308885" lon="53.1384560"><time>2024-11-03T14:54:47.300</time></trkpt><trkpt lat="56.8308866" lon="53.1383533"><time>2024-11-03T14:54:51.300</time></trkpt><trkpt lat="56.8308909" lon="53.1382542"><time>2024-11-03T14:54:55.297</time></trkpt><trkpt lat="56.8309134" lon="53.1381811"><time>2024-11-03T14:54:58.303</time></trkpt><trkpt lat="56.8309368" lon="53.1381072"><time>2024-11-03T14:55:01.317</time></trkpt><trkpt lat="56.8309448" lon="53.1380221"><time>2024-11-03T14:55:04.307</time></trkpt><trkpt lat="56.8309438" lon="53.1379321"><time>2024-11-03T14:55:07.307</time></trkpt><trkpt lat="56.8309342" lon="53.1378432"><time>2024-11-03T14:55:10.310</time></trkpt><trkpt lat="56.8309287" lon="53.1377608"><time>2024-11-03T14:55:13.303</time></trkpt><trkpt lat="56.8309129" lon="53.1376624"><time>2024-11-03T14:55:17.300</time></trkpt><trkpt lat="56.8308990" lon="53.1375577"><time>2024-11-03T14:55:31.307</time></trkpt><trkpt lat="56.8309131" lon="53.1374786"><time>2024-11-03T14:55:34.317</time></trkpt><trkpt lat="56.8309509" lon="53.1374136"><time>2024-11-03T14:55:38.310</time></trkpt><trkpt lat="56.8309683" lon="53.1373179"><time>2024-11-03T14:55:41.310</time></trkpt><trkpt lat="56.8309694" lon="53.1372246"><time>2024-11-03T14:55:47.317</time></trkpt><trkpt lat="56.8309777" lon="53.1371440"><time>2024-11-03T14:55:51.310</time></trkpt><trkpt lat="56.8309896" lon="53.1370611"><time>2024-11-03T14:55:55.317</time></trkpt><trkpt lat="56.8309989" lon="53.1369803"><time>2024-11-03T14:55:58.317</time></trkpt><trkpt lat="56.8310007" lon="53.1368821"><time>2024-11-03T14:56:01.317</time></trkpt><trkpt lat="56.8309964" lon="53.1367997"><time>2024-11-03T14:56:04.313</time></trkpt><trkpt lat="56.8309853" lon="53.1367178"><time>2024-11-03T14:56:07.317</time></trkpt><trkpt lat="56.8309416" lon="53.1366856"><time>2024-11-03T14:56:11.310</time></trkpt><trkpt lat="56.8309012" lon="53.1366495"><time>2024-11-03T14:56:15.313</time></trkpt><trkpt lat="56.8308759" lon="53.1365723"><time>2024-11-03T14:56:18.310</time></trkpt><trkpt lat="56.8308197" lon="53.1365623"><time>2024-11-03T14:56:22.313</time></trkpt><trkpt lat="56.8307656" lon="53.1365645"><time>2024-11-03T14:56:26.313</time></trkpt><trkpt lat="56.8307197" lon="53.1365383"><time>2024-11-03T14:56:29.310</time></trkpt><trkpt lat="56.8306789" lon="53.1365022"><time>2024-11-03T14:56:32.320</time></trkpt><trkpt lat="56.8306344" lon="53.1364673"><time>2024-11-03T14:56:35.317</time></trkpt><trkpt lat="56.8305871" lon="53.1364469"><time>2024-11-03T14:56:38.310</time></trkpt><trkpt lat="56.8305324" lon="53.1364057"><time>2024-11-03T14:56:42.313</time></trkpt><trkpt lat="56.8304921" lon="53.1363683"><time>2024-11-03T14:56:45.317</time></trkpt><trkpt lat="56.8304480" lon="53.1363275"><time>2024-11-03T14:56:48.320</time></trkpt><trkpt lat="56.8303932" lon="53.1362836"><time>2024-11-03T14:56:51.317</time></trkpt><trkpt lat="56.8303505" lon="53.1362153"><time>2024-11-03T14:56:54.317</time></trkpt><trkpt lat="56.8303030" lon="53.1361855"><time>2024-11-03T14:56:57.317</time></trkpt><trkpt lat="56.8302555" lon="53.1361492"><time>2024-11-03T14:57:00.310</time></trkpt><trkpt lat="56.8302148" lon="53.1361064"><time>2024-11-03T14:57:03.310</time></trkpt><trkpt lat="56.8301754" lon="53.1360348"><time>2024-11-03T14:57:07.310</time></trkpt><trkpt lat="56.8301447" lon="53.1359627"><time>2024-11-03T14:57:10.310</time></trkpt><trkpt lat="56.8301181" lon="53.1358936"><time>2024-11-03T14:57:13.307</time></trkpt><trkpt lat="56.8300915" lon="53.1358080"><time>2024-11-03T14:57:16.313</time></trkpt><trkpt lat="56.8300695" lon="53.1357322"><time>2024-11-03T14:57:19.313</time></trkpt><trkpt lat="56.8300583" lon="53.1356506"><time>2024-11-03T14:57:22.313</time></trkpt><trkpt lat="56.8300590" lon="53.1355644"><time>2024-11-03T14:57:25.313</time></trkpt><trkpt lat="56.8300559" lon="53.1354808"><time>2024-11-03T14:57:28.317</time></trkpt><trkpt lat="56.8300527" lon="53.1353964"><time>2024-11-03T14:57:31.313</time></trkpt><trkpt lat="56.8300451" lon="53.1352893"><time>2024-11-03T14:57:34.323</time></trkpt><trkpt lat="56.8300393" lon="53.1351808"><time>2024-11-03T14:57:37.313</time></trkpt><trkpt lat="56.8300361" lon="53.1350935"><time>2024-11-03T14:57:40.317</time></trkpt><trkpt lat="56.8300373" lon="53.1350020"><time>2024-11-03T14:57:43.313</time></trkpt><trkpt lat="56.8300319" lon="53.1348982"><time>2024-11-03T14:57:46.317</time></trkpt><trkpt lat="56.8300371" lon="53.1348021"><time>2024-11-03T14:57:49.320</time></trkpt><trkpt lat="56.8300340" lon="53.1347098"><time>2024-11-03T14:57:52.317</time></trkpt><trkpt lat="56.8300246" lon="53.1346116"><time>2024-11-03T14:57:55.310</time></trkpt><trkpt lat="56.8300106" lon="53.1345042"><time>2024-11-03T14:57:58.317</time></trkpt><trkpt lat="56.8299950" lon="53.1344054"><time>2024-11-03T14:58:01.310</time></trkpt><trkpt lat="56.8299831" lon="53.1343155"><time>2024-11-03T14:58:04.317</time></trkpt><trkpt lat="56.8299779" lon="53.1342169"><time>2024-11-03T14:58:07.310</time></trkpt><trkpt lat="56.8299646" lon="53.1341167"><time>2024-11-03T14:58:10.317</time></trkpt><trkpt lat="56.8299593" lon="53.1340120"><time>2024-11-03T14:58:13.310</time></trkpt><trkpt lat="56.8299521" lon="53.1339141"><time>2024-11-03T14:58:16.317</time></trkpt><trkpt lat="56.8299436" lon="53.1338209"><time>2024-11-03T14:58:19.317</time></trkpt><trkpt lat="56.8299340" lon="53.1337296"><time>2024-11-03T14:58:22.317</time></trkpt><trkpt lat="56.8299311" lon="53.1336337"><time>2024-11-03T14:58:25.330</time></trkpt><trkpt lat="56.8299274" lon="53.1336012"><time>2024-11-03T14:58:26.317</time></trkpt><trkpt lat="56.8299206" lon="53.1335092"><time>2024-11-03T14:58:29.317</time></trkpt><trkpt lat="56.8299141" lon="53.1334149"><time>2024-11-03T14:58:32.317</time></trkpt><trkpt lat="56.8299086" lon="53.1333174"><time>2024-11-03T14:58:35.317</time></trkpt><trkpt lat="56.8298981" lon="53.1332262"><time>2024-11-03T14:58:38.320</time></trkpt><trkpt lat="56.8298959" lon="53.1331343"><time>2024-11-03T14:58:41.317</time></trkpt><trkpt lat="56.8298861" lon="53.1330339"><time>2024-11-03T14:58:44.313</time></trkpt><trkpt lat="56.8298754" lon="53.1329287"><time>2024-11-03T14:58:47.320</time></trkpt><trkpt lat="56.8298643" lon="53.1328242"><time>2024-11-03T14:58:50.317</time></trkpt><trkpt lat="56.8298614" lon="53.1327214"><time>2024-11-03T14:58:53.317</time></trkpt><trkpt lat="56.8298580" lon="53.1326181"><time>2024-11-03T14:58:56.310</time></trkpt><trkpt lat="56.8298461" lon="53.1325282"><time>2024-11-03T14:58:59.313</time></trkpt><trkpt lat="56.8298413" lon="53.1324382"><time>2024-11-03T14:59:02.313</time></trkpt><trkpt lat="56.8298411" lon="53.1323368"><time>2024-11-03T14:59:05.313</time></trkpt><trkpt lat="56.8298425" lon="53.1322469"><time>2024-11-03T14:59:08.310</time></trkpt><trkpt lat="56.8298408" lon="53.1321550"><time>2024-11-03T14:59:11.317</time></trkpt><trkpt lat="56.8298336" lon="53.1320618"><time>2024-11-03T14:59:14.313</time></trkpt><trkpt lat="56.8298333" lon="53.1319746"><time>2024-11-03T14:59:17.317</time></trkpt><trkpt lat="56.8298284" lon="53.1318778"><time>2024-11-03T14:59:20.317</time></trkpt><trkpt lat="56.8298261" lon="53.1317839"><time>2024-11-03T14:59:23.317</time></trkpt><trkpt lat="56.8298250" lon="53.1316880"><time>2024-11-03T14:59:26.313</time></trkpt><trkpt lat="56.8298153" lon="53.1315931"><time>2024-11-03T14:59:29.317</time></trkpt><trkpt lat="56.8298048" lon="53.1315020"><time>2024-11-03T14:59:32.317</time></trkpt><trkpt lat="56.8298062" lon="53.1314105"><time>2024-11-03T14:59:35.320</time></trkpt><trkpt lat="56.8298049" lon="53.1313080"><time>2024-11-03T14:59:38.317</time></trkpt><trkpt lat="56.8298618" lon="53.1312490"><time>2024-11-03T14:59:41.323</time></trkpt><trkpt lat="56.8299234" lon="53.1312320"><time>2024-11-03T14:59:44.323</time></trkpt><trkpt lat="56.8299422" lon="53.1312219"><time>2024-11-03T14:59:45.317</time></trkpt><trkpt lat="56.8299918" lon="53.1312041"><time>2024-11-03T14:59:48.317</time></trkpt><trkpt lat="56.8300374" lon="53.1311938"><time>2024-11-03T14:59:51.303</time></trkpt><trkpt lat="56.8300850" lon="53.1311839"><time>2024-11-03T14:59:54.303</time></trkpt><trkpt lat="56.8301437" lon="53.1311597"><time>2024-11-03T14:59:58.300</time></trkpt><trkpt lat="56.8302023" lon="53.1311583"><time>2024-11-03T15:00:02.307</time></trkpt><trkpt lat="56.8302515" lon="53.1311630"><time>2024-11-03T15:00:05.303</time></trkpt><trkpt lat="56.8303008" lon="53.1311711"><time>2024-11-03T15:00:08.317</time></trkpt><trkpt lat="56.8303570" lon="53.1311620"><time>2024-11-03T15:00:12.330</time></trkpt><trkpt lat="56.8303730" lon="53.1311551"><time>2024-11-03T15:00:13.320</time></trkpt><trkpt lat="56.8304126" lon="53.1311118"><time>2024-11-03T15:00:16.317</time></trkpt><trkpt lat="56.8304585" lon="53.1310586"><time>2024-11-03T15:00:19.313</time></trkpt><trkpt lat="56.8305010" lon="53.1310073"><time>2024-11-03T15:00:22.317</time></trkpt><trkpt lat="56.8305415" lon="53.1309599"><time>2024-11-03T15:00:25.317</time></trkpt><trkpt lat="56.8305927" lon="53.1309531"><time>2024-11-03T15:00:29.317</time></trkpt><trkpt lat="56.8306427" lon="53.1309313"><time>2024-11-03T15:00:33.313</time></trkpt><trkpt lat="56.8307039" lon="53.1309329"><time>2024-11-03T15:00:36.317</time></trkpt><trkpt lat="56.8307624" lon="53.1309040"><time>2024-11-03T15:00:39.310</time></trkpt><trkpt lat="56.8308082" lon="53.1308514"><time>2024-11-03T15:00:43.300</time></trkpt><trkpt lat="56.8308466" lon="53.1308304"><time>2024-11-03T15:00:52.087</time></trkpt><trkpt lat="56.8308610" lon="53.1308440"><time>2024-11-03T15:01:05.337</time></trkpt><trkpt lat="56.8308742" lon="53.1308625"><time>2024-11-03T15:01:06.307</time></trkpt><trkpt lat="56.8309116" lon="53.1309421"><time>2024-11-03T15:01:10.307</time></trkpt><trkpt lat="56.8309540" lon="53.1309729"><time>2024-11-03T15:01:13.307</time></trkpt><trkpt lat="56.8310003" lon="53.1309724"><time>2024-11-03T15:01:16.307</time></trkpt><trkpt lat="56.8310443" lon="53.1309527"><time>2024-11-03T15:01:19.297</time></trkpt><trkpt lat="56.8310908" lon="53.1309353"><time>2024-11-03T15:01:22.303</time></trkpt><trkpt lat="56.8311368" lon="53.1309407"><time>2024-11-03T15:01:25.300</time></trkpt><trkpt lat="56.8311931" lon="53.1309327"><time>2024-11-03T15:01:29.303</time></trkpt><trkpt lat="56.8312391" lon="53.1309396"><time>2024-11-03T15:01:32.307</time></trkpt><trkpt lat="56.8312867" lon="53.1309356"><time>2024-11-03T15:01:35.300</time></trkpt><trkpt lat="56.8313332" lon="53.1309344"><time>2024-11-03T15:01:38.307</time></trkpt><trkpt lat="56.8313814" lon="53.1309356"><time>2024-11-03T15:01:41.310</time></trkpt><trkpt lat="56.8314286" lon="53.1309031"><time>2024-11-03T15:01:44.323</time></trkpt><trkpt lat="56.8314762" lon="53.1308888"><time>2024-11-03T15:01:47.320</time></trkpt><trkpt lat="56.8315247" lon="53.1308791"><time>2024-11-03T15:01:50.317</time></trkpt><trkpt lat="56.8315770" lon="53.1308719"><time>2024-11-03T15:01:53.320</time></trkpt><trkpt lat="56.8316241" lon="53.1308144"><time>2024-11-03T15:01:57.317</time></trkpt><trkpt lat="56.8316640" lon="53.1307644"><time>2024-11-03T15:02:00.317</time></trkpt><trkpt lat="56.8317077" lon="53.1307191"><time>2024-11-03T15:02:03.317</time></trkpt><trkpt lat="56.8317415" lon="53.1306486"><time>2024-11-03T15:02:06.320</time></trkpt><trkpt lat="56.8317555" lon="53.1305653"><time>2024-11-03T15:02:09.313</time></trkpt><trkpt lat="56.8317798" lon="53.1304920"><time>2024-11-03T15:02:12.320</time></trkpt><trkpt lat="56.8318310" lon="53.1304446"><time>2024-11-03T15:02:15.320</time></trkpt><trkpt lat="56.8318800" lon="53.1303995"><time>2024-11-03T15:02:18.320</time></trkpt><trkpt lat="56.8319295" lon="53.1303766"><time>2024-11-03T15:02:21.317</time></trkpt><trkpt lat="56.8319856" lon="53.1303725"><time>2024-11-03T15:02:24.320</time></trkpt><trkpt lat="56.8320371" lon="53.1303738"><time>2024-11-03T15:02:27.317</time></trkpt><trkpt lat="56.8320844" lon="53.1303537"><time>2024-11-03T15:02:30.320</time></trkpt><trkpt lat="56.8321309" lon="53.1303265"><time>2024-11-03T15:02:33.317</time></trkpt><trkpt lat="56.8321921" lon="53.1303113"><time>2024-11-03T15:02:36.320</time></trkpt><trkpt lat="56.8322506" lon="53.1303191"><time>2024-11-03T15:02:39.317</time></trkpt><trkpt lat="56.8323014" lon="53.1303243"><time>2024-11-03T15:02:42.317</time></trkpt><trkpt lat="56.8323460" lon="53.1302875"><time>2024-11-03T15:02:45.317</time></trkpt><trkpt lat="56.8323988" lon="53.1302685"><time>2024-11-03T15:02:48.317</time></trkpt><trkpt lat="56.8324505" lon="53.1302303"><time>2024-11-03T15:02:51.313</time></trkpt><trkpt lat="56.8325013" lon="53.1302025"><time>2024-11-03T15:02:54.323</time></trkpt><trkpt lat="56.8325598" lon="53.1301939"><time>2024-11-03T15:02:57.313</time></trkpt><trkpt lat="56.8326124" lon="53.1301524"><time>2024-11-03T15:03:00.313</time></trkpt><trkpt lat="56.8326600" lon="53.1301227"><time>2024-11-03T15:03:03.327</time></trkpt><trkpt lat="56.8326752" lon="53.1301268"><time>2024-11-03T15:03:04.310</time></trkpt><trkpt lat="56.8327229" lon="53.1301410"><time>2024-11-03T15:03:07.320</time></trkpt><trkpt lat="56.8327712" lon="53.1301528"><time>2024-11-03T15:03:10.320</time></trkpt><trkpt lat="56.8328234" lon="53.1301825"><time>2024-11-03T15:03:13.317</time></trkpt><trkpt lat="56.8328753" lon="53.1302089"><time>2024-11-03T15:03:16.317</time></trkpt><trkpt lat="56.8329284" lon="53.1302300"><time>2024-11-03T15:03:19.320</time></trkpt><trkpt lat="56.8329774" lon="53.1302737"><time>2024-11-03T15:03:22.320</time></trkpt><trkpt lat="56.8330281" lon="53.1303219"><time>2024-11-03T15:03:24.320</time></trkpt><trkpt lat="56.8330819" lon="53.1303312"><time>2024-11-03T15:03:26.323</time></trkpt><trkpt lat="56.8331386" lon="53.1303336"><time>2024-11-03T15:03:29.323</time></trkpt><trkpt lat="56.8331960" lon="53.1303313"><time>2024-11-03T15:03:33.323</time></trkpt><trkpt lat="56.8332477" lon="53.1303520"><time>2024-11-03T15:03:36.320</time></trkpt><trkpt lat="56.8332956" lon="53.1303586"><time>2024-11-03T15:03:39.313</time></trkpt><trkpt lat="56.8333408" lon="53.1303427"><time>2024-11-03T15:03:42.317</time></trkpt><trkpt lat="56.8333854" lon="53.1303241"><time>2024-11-03T15:03:45.317</time></trkpt><trkpt lat="56.8334335" lon="53.1303002"><time>2024-11-03T15:03:48.323</time></trkpt><trkpt lat="56.8334837" lon="53.1302809"><time>2024-11-03T15:03:51.320</time></trkpt><trkpt lat="56.8335307" lon="53.1302752"><time>2024-11-03T15:03:54.320</time></trkpt><trkpt lat="56.8335785" lon="53.1302225"><time>2024-11-03T15:03:57.320</time></trkpt><trkpt lat="56.8336220" lon="53.1301512"><time>2024-11-03T15:04:00.333</time></trkpt><trkpt lat="56.8336382" lon="53.1301348"><time>2024-11-03T15:04:01.313</time></trkpt><trkpt lat="56.8336847" lon="53.1301028"><time>2024-11-03T15:04:04.313</time></trkpt><trkpt lat="56.8337289" lon="53.1300607"><time>2024-11-03T15:04:07.323</time></trkpt><trkpt lat="56.8337751" lon="53.1300140"><time>2024-11-03T15:04:10.317</time></trkpt><trkpt lat="56.8338210" lon="53.1299845"><time>2024-11-03T15:04:13.317</time></trkpt><trkpt lat="56.8338753" lon="53.1299825"><time>2024-11-03T15:04:16.317</time></trkpt><trkpt lat="56.8339203" lon="53.1299475"><time>2024-11-03T15:04:19.320</time></trkpt><trkpt lat="56.8339689" lon="53.1298988"><time>2024-11-03T15:04:22.317</time></trkpt><trkpt lat="56.8340273" lon="53.1298766"><time>2024-11-03T15:04:25.337</time></trkpt><trkpt lat="56.8340458" lon="53.1298687"><time>2024-11-03T15:04:26.317</time></trkpt><trkpt lat="56.8340985" lon="53.1298526"><time>2024-11-03T15:04:29.320</time></trkpt><trkpt lat="56.8341549" lon="53.1298300"><time>2024-11-03T15:04:32.323</time></trkpt><trkpt lat="56.8342093" lon="53.1298149"><time>2024-11-03T15:04:35.317</time></trkpt><trkpt lat="56.8342614" lon="53.1297808"><time>2024-11-03T15:04:39.293</time></trkpt><trkpt lat="56.8343199" lon="53.1297553"><time>2024-11-03T15:04:43.300</time></trkpt><trkpt lat="56.8343704" lon="53.1297026"><time>2024-11-03T15:04:47.307</time></trkpt><trkpt lat="56.8344249" lon="53.1296666"><time>2024-11-03T15:04:51.300</time></trkpt><trkpt lat="56.8344609" lon="53.1296087"><time>2024-11-03T15:04:54.317</time></trkpt><trkpt lat="56.8344778" lon="53.1295193"><time>2024-11-03T15:04:57.327</time></trkpt><trkpt lat="56.8344797" lon="53.1294299"><time>2024-11-03T15:05:00.320</time></trkpt><trkpt lat="56.8344363" lon="53.1294228"><time>2024-11-03T15:05:46.600</time></trkpt><trkpt lat="56.8345296" lon="53.1293686"><time>2024-11-03T15:05:55.323</time></trkpt><trkpt lat="56.8345407" lon="53.1293488"><time>2024-11-03T15:05:56.297</time></trkpt><trkpt lat="56.8345812" lon="53.1293024"><time>2024-11-03T15:05:59.310</time></trkpt><trkpt lat="56.8346284" lon="53.1292321"><time>2024-11-03T15:06:03.307</time></trkpt><trkpt lat="56.8346727" lon="53.1291974"><time>2024-11-03T15:06:06.303</time></trkpt><trkpt lat="56.8347121" lon="53.1291560"><time>2024-11-03T15:06:09.313</time></trkpt><trkpt lat="56.8347511" lon="53.1291145"><time>2024-11-03T15:06:12.307</time></trkpt><trkpt lat="56.8347912" lon="53.1290674"><time>2024-11-03T15:06:15.313</time></trkpt><trkpt lat="56.8348331" lon="53.1290160"><time>2024-11-03T15:06:18.310</time></trkpt><trkpt lat="56.8348680" lon="53.1289444"><time>2024-11-03T15:06:21.317</time></trkpt><trkpt lat="56.8349072" lon="53.1288876"><time>2024-11-03T15:06:24.313</time></trkpt><trkpt lat="56.8349541" lon="53.1288151"><time>2024-11-03T15:06:28.303</time></trkpt><trkpt lat="56.8349973" lon="53.1287468"><time>2024-11-03T15:06:32.303</time></trkpt><trkpt lat="56.8350310" lon="53.1286831"><time>2024-11-03T15:06:35.317</time></trkpt><trkpt lat="56.8350810" lon="53.1286435"><time>2024-11-03T15:06:39.310</time></trkpt><trkpt lat="56.8351315" lon="53.1286069"><time>2024-11-03T15:06:43.313</time></trkpt><trkpt lat="56.8351874" lon="53.1285676"><time>2024-11-03T15:06:47.313</time></trkpt><trkpt lat="56.8352306" lon="53.1285421"><time>2024-11-03T15:06:50.310</time></trkpt><trkpt lat="56.8352850" lon="53.1285385"><time>2024-11-03T15:06:54.327</time></trkpt><trkpt lat="56.8353287" lon="53.1284983"><time>2024-11-03T15:06:59.310</time></trkpt><trkpt lat="56.8353714" lon="53.1284127"><time>2024-11-03T15:07:03.340</time></trkpt><trkpt lat="56.8353857" lon="53.1283869"><time>2024-11-03T15:07:04.317</time></trkpt><trkpt lat="56.8354167" lon="53.1282979"><time>2024-11-03T15:07:07.317</time></trkpt><trkpt lat="56.8354184" lon="53.1282043"><time>2024-11-03T15:07:10.317</time></trkpt><trkpt lat="56.8354168" lon="53.1280962"><time>2024-11-03T15:07:13.310</time></trkpt><trkpt lat="56.8354342" lon="53.1279916"><time>2024-11-03T15:07:16.317</time></trkpt><trkpt lat="56.8354276" lon="53.1278839"><time>2024-11-03T15:07:19.313</time></trkpt><trkpt lat="56.8354316" lon="53.1278017"><time>2024-11-03T15:07:21.317</time></trkpt><trkpt lat="56.8354052" lon="53.1277127"><time>2024-11-03T15:07:25.303</time></trkpt><trkpt lat="56.8353780" lon="53.1276225"><time>2024-11-03T15:07:29.310</time></trkpt><trkpt lat="56.8353386" lon="53.1275415"><time>2024-11-03T15:07:33.323</time></trkpt><trkpt lat="56.8353296" lon="53.1275140"><time>2024-11-03T15:07:34.307</time></trkpt><trkpt lat="56.8353205" lon="53.1274193"><time>2024-11-03T15:07:37.310</time></trkpt><trkpt lat="56.8353161" lon="53.1273266"><time>2024-11-03T15:07:40.310</time></trkpt><trkpt lat="56.8353075" lon="53.1272384"><time>2024-11-03T15:07:43.307</time></trkpt><trkpt lat="56.8352956" lon="53.1271561"><time>2024-11-03T15:07:46.300</time></trkpt><trkpt lat="56.8352959" lon="53.1270678"><time>2024-11-03T15:07:49.300</time></trkpt><trkpt lat="56.8352992" lon="53.1269713"><time>2024-11-03T15:07:53.310</time></trkpt></trkseg></trk></gpx>